Wetterdaten: Donnerstag, 03.10.2019
Datum Zeit Temp. Aussen Temp. o. S. +5cm Feuchte Auss Luftdruck Regen Sonnenschein Regendauer Solar Windben Empfang
03.10.2019 00:00 8,9 C 7,8 C 10,0 C 94 % 1018,2 hPa 0,0 l/m 0 min 0 min 0 W/m 3,2 km/h (1 Bft) 95,65 %
03.10.2019 00:02 8,9 C 7,8 C 10,0 C 94 % 1018,2 hPa 0,0 l/m 0 min 0 min 0 W/m 6,4 km/h (2 Bft) 97,30 %
03.10.2019 00:04 8,9 C 7,8 C 10,0 C 94 % 1018,2 hPa 0,0 l/m 0 min 0 min 0 W/m 12,9 km/h (3 Bft) 98,00 %
03.10.2019 00:08 8,9 C 7,8 C 10,0 C 94 % 1018,3 hPa 0,0 l/m 0 min 0 min 0 W/m 9,7 km/h (2 Bft) 96,84 %
03.10.2019 00:10 8,9 C 7,8 C 10,0 C 94 % 1018,3 hPa 0,0 l/m 0 min 0 min 0 W/m 3,2 km/h (1 Bft) 97,87 %
03.10.2019 00:12 8,9 C 7,8 C 10,0 C 94 % 1018,3 hPa 0,0 l/m 0 min 0 min 0 W/m 9,7 km/h (2 Bft) 97,67 %
03.10.2019 00:14 8,9 C 7,8 C 10,0 C 94 % 1018,3 hPa 0,0 l/m 0 min 0 min 0 W/m 6,4 km/h (2 Bft) 97,96 %
03.10.2019 00:16 8,9 C 7,8 C 10,0 C 94 % 1018,3 hPa 0,0 l/m 0 min 0 min 0 W/m 3,2 km/h (1 Bft) 95,83 %
03.10.2019 00:18 8,9 C 7,8 C 10,0 C 94 % 1018,3 hPa 0,0 l/m 0 min 0 min 0 W/m 9,7 km/h (2 Bft) 95,74 %
03.10.2019 00:20 8,8 C 7,8 C 10,0 C 94 % 1018,4 hPa 0,0 l/m 0 min 0 min 0 W/m 9,7 km/h (2 Bft) 97,67 %
03.10.2019 00:22 8,8 C 7,8 C 10,0 C 94 % 1018,4 hPa 0,0 l/m 0 min 0 min 0 W/m 6,4 km/h (2 Bft) 98,00 %
03.10.2019 00:24 8,8 C 7,8 C 10,0 C 94 % 1018,4 hPa 0,0 l/m 0 min 0 min 0 W/m 12,9 km/h (3 Bft) 97,87 %
03.10.2019 00:26 8,8 C 7,8 C 10,0 C 94 % 1018,4 hPa 0,0 l/m 0 min 0 min 0 W/m 6,4 km/h (2 Bft) 97,87 %
03.10.2019 00:28 8,8 C 7,8 C 10,0 C 94 % 1018,4 hPa 0,0 l/m 0 min 0 min 0 W/m 3,2 km/h (1 Bft) 97,87 %
03.10.2019 00:30 8,8 C 7,8 C 10,0 C 94 % 1018,5 hPa 0,0 l/m 0 min 0 min 0 W/m 12,9 km/h (3 Bft) 97,67 %
03.10.2019 00:32 8,8 C 8,3 C 10,0 C 94 % 1018,4 hPa 0,0 l/m 0 min 0 min 0 W/m 12,9 km/h (3 Bft) 97,87 %
03.10.2019 00:34 8,8 C 8,3 C 10,0 C 94 % 1018,5 hPa 0,0 l/m 0 min 0 min 0 W/m 3,2 km/h (1 Bft) 97,87 %
03.10.2019 00:36 8,8 C 8,3 C 10,0 C 94 % 1018,5 hPa 0,0 l/m 0 min 0 min 0 W/m 3,2 km/h (1 Bft) 100,00 %
03.10.2019 00:38 8,8 C 8,3 C 10,0 C 94 % 1018,4 hPa 0,0 l/m 0 min 0 min 0 W/m 6,4 km/h (2 Bft) 100,00 %
03.10.2019 00:40 8,8 C 7,8 C 10,0 C 94 % 1018,5 hPa 0,0 l/m 0 min 0 min 0 W/m 9,7 km/h (2 Bft) 100,00 %
03.10.2019 00:42 8,8 C 7,8 C 10,0 C 94 % 1018,5 hPa 0,0 l/m 0 min 0 min 0 W/m 3,2 km/h (1 Bft) 100,00 %
03.10.2019 00:44 8,8 C 7,8 C 10,0 C 94 % 1018,6 hPa 0,0 l/m 0 min 0 min 0 W/m 12,9 km/h (3 Bft) 100,00 %
03.10.2019 00:46 8,8 C 8,3 C 10,0 C 94 % 1018,5 hPa 0,0 l/m 0 min 0 min 0 W/m 6,4 km/h (2 Bft) 100,00 %
03.10.2019 00:48 8,8 C 8,3 C 10,0 C 94 % 1018,5 hPa 0,0 l/m 0 min 0 min 0 W/m 6,4 km/h (2 Bft) 100,00 %
03.10.2019 00:50 8,8 C 7,8 C 10,0 C 94 % 1018,6 hPa 0,0 l/m 0 min 0 min 0 W/m 3,2 km/h (1 Bft) 100,00 %
03.10.2019 00:52 8,8 C 8,3 C 10,0 C 94 % 1018,5 hPa 0,0 l/m 0 min 0 min 0 W/m 6,4 km/h (2 Bft) 100,00 %
03.10.2019 00:54 8,8 C 7,8 C 10,0 C 94 % 1018,5 hPa 0,0 l/m 0 min 0 min 0 W/m 3,2 km/h (1 Bft) 100,00 %
03.10.2019 00:56 8,8 C 8,3 C 10,0 C 94 % 1018,5 hPa 0,0 l/m 0 min 0 min 0 W/m 6,4 km/h (2 Bft) 100,00 %
03.10.2019 00:58 8,8 C 8,3 C 10,0 C 94 % 1018,5 hPa 0,0 l/m 0 min 0 min 0 W/m 6,4 km/h (2 Bft) 100,00 %
03.10.2019 01:00 8,8 C 8,3 C 10,0 C 94 % 1018,5 hPa 0,0 l/m 0 min 0 min 0 W/m 9,7 km/h (2 Bft) 100,00 %
03.10.2019 01:02 8,8 C 8,3 C 10,0 C 95 % 1018,5 hPa 0,0 l/m 0 min 0 min 0 W/m 3,2 km/h (1 Bft) 100,00 %
03.10.2019 01:04 8,9 C 8,3 C 10,0 C 95 % 1018,5 hPa 0,0 l/m 0 min 0 min 0 W/m 9,7 km/h (2 Bft) 100,00 %
03.10.2019 01:06 8,8 C 7,8 C 10,0 C 95 % 1018,5 hPa 0,0 l/m 0 min 0 min 0 W/m 3,2 km/h (1 Bft) 100,00 %
03.10.2019 01:08 8,8 C 7,8 C 10,0 C 95 % 1018,5 hPa 0,0 l/m 0 min 0 min 0 W/m 9,7 km/h (2 Bft) 100,00 %
03.10.2019 01:10 8,9 C 8,3 C 10,0 C 95 % 1018,5 hPa 0,0 l/m 0 min 0 min 0 W/m 6,4 km/h (2 Bft) 100,00 %
03.10.2019 01:12 8,9 C 7,8 C 10,0 C 95 % 1018,5 hPa 0,0 l/m 0 min 0 min 0 W/m 3,2 km/h (1 Bft) 95,65 %
03.10.2019 01:14 8,9 C 7,8 C 10,0 C 95 % 1018,4 hPa 0,0 l/m 0 min 0 min 0 W/m 3,2 km/h (1 Bft) 100,00 %
03.10.2019 01:16 8,9 C 7,8 C 10,0 C 95 % 1018,4 hPa 0,0 l/m 0 min 0 min 0 W/m 0,0 km/h (0 Bft) 97,87 %
03.10.2019 01:18 8,8 C 7,8 C 10,0 C 95 % 1018,4 hPa 0,0 l/m 0 min 0 min 0 W/m 3,2 km/h (1 Bft) 100,00 %
03.10.2019 01:20 8,8 C 7,8 C 10,0 C 95 % 1018,4 hPa 0,0 l/m 0 min 0 min 0 W/m 6,4 km/h (2 Bft) 97,87 %
03.10.2019 01:22 8,8 C 7,8 C 10,0 C 95 % 1018,4 hPa 0,0 l/m 0 min 0 min 0 W/m 6,4 km/h (2 Bft) 100,00 %
03.10.2019 01:24 8,8 C 7,8 C 10,0 C 95 % 1018,4 hPa 0,0 l/m 0 min 0 min 0 W/m 3,2 km/h (1 Bft) 100,00 %
03.10.2019 01:26 8,8 C 7,8 C 10,0 C 95 % 1018,4 hPa 0,0 l/m 0 min 0 min 0 W/m 16,1 km/h (3 Bft) 100,00 %
03.10.2019 01:28 8,8 C 7,8 C 10,0 C 95 % 1018,4 hPa 0,0 l/m 0 min 0 min 0 W/m 6,4 km/h (2 Bft) 97,87 %
03.10.2019 01:30 8,8 C 7,8 C 10,0 C 95 % 1018,3 hPa 0,0 l/m 0 min 0 min 0 W/m 12,9 km/h (3 Bft) 97,87 %
03.10.2019 01:32 8,8 C 7,8 C 10,0 C 95 % 1018,3 hPa 0,0 l/m 0 min 0 min 0 W/m 16,1 km/h (3 Bft) 97,87 %
03.10.2019 01:34 8,8 C 7,8 C 10,0 C 95 % 1018,3 hPa 0,0 l/m 0 min 0 min 0 W/m 6,4 km/h (2 Bft) 95,74 %
03.10.2019 01:36 8,8 C 7,8 C 10,0 C 95 % 1018,3 hPa 0,0 l/m 0 min 0 min 0 W/m 12,9 km/h (3 Bft) 97,83 %
03.10.2019 01:38 8,8 C 7,8 C 10,0 C 95 % 1018,4 hPa 0,0 l/m 0 min 0 min 0 W/m 6,4 km/h (2 Bft) 97,87 %
03.10.2019 01:40 8,8 C 7,8 C 10,0 C 95 % 1018,3 hPa 0,0 l/m 0 min 0 min 0 W/m 3,2 km/h (1 Bft) 97,87 %
03.10.2019 01:42 8,8 C 7,8 C 10,0 C 95 % 1018,3 hPa 0,0 l/m 0 min 0 min 0 W/m 12,9 km/h (3 Bft) 97,87 %
03.10.2019 01:44 8,8 C 7,8 C 10,0 C 95 % 1018,3 hPa 0,0 l/m 0 min 0 min 0 W/m 6,4 km/h (2 Bft) 97,87 %
03.10.2019 01:46 8,8 C 7,8 C 10,0 C 95 % 1018,3 hPa 0,0 l/m 0 min 0 min 0 W/m 6,4 km/h (2 Bft) 97,83 %
03.10.2019 01:48 8,7 C 7,8 C 10,0 C 95 % 1018,3 hPa 0,0 l/m 0 min 0 min 0 W/m 6,4 km/h (2 Bft) 97,87 %
03.10.2019 01:50 8,7 C 7,8 C 10,0 C 95 % 1018,3 hPa 0,0 l/m 0 min 0 min 0 W/m 6,4 km/h (2 Bft) 97,87 %
03.10.2019 01:52 8,7 C 7,8 C 10,0 C 95 % 1018,3 hPa 0,0 l/m 0 min 0 min 0 W/m 6,4 km/h (2 Bft) 93,62 %
03.10.2019 01:54 8,7 C 7,8 C 10,0 C 95 % 1018,3 hPa 0,0 l/m 0 min 0 min 0 W/m 3,2 km/h (1 Bft) 97,87 %
03.10.2019 01:56 8,7 C 7,8 C 10,0 C 95 % 1018,3 hPa 0,0 l/m 0 min 0 min 0 W/m 6,4 km/h (2 Bft) 97,87 %
03.10.2019 01:58 8,7 C 7,8 C 10,0 C 95 % 1018,3 hPa 0,0 l/m 0 min 0 min 0 W/m 0,0 km/h (0 Bft) 97,83 %
03.10.2019 02:00 8,7 C 7,8 C 10,0 C 95 % 1018,3 hPa 0,0 l/m 0 min 0 min 0 W/m 0,0 km/h (0 Bft) 95,74 %
03.10.2019 02:02 8,7 C 7,8 C 10,0 C 95 % 1018,4 hPa 0,0 l/m 0 min 0 min 0 W/m 6,4 km/h (2 Bft) 97,87 %
03.10.2019 02:04 8,7 C 7,8 C 10,0 C 95 % 1018,3 hPa 0,0 l/m 0 min 0 min 0 W/m 6,4 km/h (2 Bft) 97,87 %
03.10.2019 02:06 8,7 C 7,8 C 10,0 C 95 % 1018,3 hPa 0,0 l/m 0 min 0 min 0 W/m 3,2 km/h (1 Bft) 95,74 %
03.10.2019 02:08 8,7 C 7,8 C 10,0 C 95 % 1018,3 hPa 0,0 l/m 0 min 0 min 0 W/m 3,2 km/h (1 Bft) 97,87 %
03.10.2019 02:10 8,7 C 7,8 C 10,0 C 95 % 1018,3 hPa 0,0 l/m 0 min 0 min 0 W/m 3,2 km/h (1 Bft) 95,65 %
03.10.2019 02:12 8,6 C 7,8 C 10,0 C 95 % 1018,3 hPa 0,0 l/m 0 min 0 min 0 W/m 6,4 km/h (2 Bft) 97,87 %
03.10.2019 02:14 8,6 C 7,8 C 10,0 C 96 % 1018,3 hPa 0,0 l/m 0 min 0 min 0 W/m 6,4 km/h (2 Bft) 97,87 %
03.10.2019 02:16 8,6 C 7,8 C 10,0 C 96 % 1018,2 hPa 0,0 l/m 0 min 0 min 0 W/m 3,2 km/h (1 Bft) 97,87 %
03.10.2019 02:18 8,6 C 7,8 C 10,0 C 96 % 1018,3 hPa 0,0 l/m 0 min 0 min 0 W/m 3,2 km/h (1 Bft) 100,00 %
03.10.2019 02:20 8,6 C 7,8 C 10,0 C 96 % 1018,2 hPa 0,0 l/m 0 min 0 min 0 W/m 3,2 km/h (1 Bft) 100,00 %
03.10.2019 02:22 8,6 C 7,8 C 10,0 C 96 % 1018,3 hPa 0,0 l/m 0 min 0 min 0 W/m 6,4 km/h (2 Bft) 97,83 %
03.10.2019 02:24 8,6 C 7,8 C 10,0 C 96 % 1018,2 hPa 0,0 l/m 0 min 0 min 0 W/m 6,4 km/h (2 Bft) 97,87 %
03.10.2019 02:26 8,6 C 7,8 C 10,0 C 96 % 1018,2 hPa 0,0 l/m 0 min 0 min 0 W/m 6,4 km/h (2 Bft) 97,87 %
03.10.2019 02:28 8,6 C 7,8 C 10,0 C 96 % 1018,2 hPa 0,0 l/m 0 min 0 min 0 W/m 9,7 km/h (2 Bft) 97,87 %
03.10.2019 02:30 8,5 C 7,8 C 10,0 C 96 % 1018,3 hPa 0,0 l/m 0 min 0 min 0 W/m 3,2 km/h (1 Bft) 95,74 %
03.10.2019 02:32 8,5 C 7,8 C 10,0 C 96 % 1018,2 hPa 0,0 l/m 0 min 0 min 0 W/m 3,2 km/h (1 Bft) 97,87 %
03.10.2019 02:34 8,5 C 7,2 C 10,0 C 96 % 1018,2 hPa 0,0 l/m 0 min 0 min 0 W/m 3,2 km/h (1 Bft) 93,48 %
03.10.2019 02:36 8,5 C 7,8 C 10,0 C 96 % 1018,2 hPa 0,0 l/m 0 min 0 min 0 W/m 6,4 km/h (2 Bft) 97,87 %
03.10.2019 02:38 8,5 C 7,2 C 10,0 C 96 % 1018,2 hPa 0,0 l/m 0 min 0 min 0 W/m 3,2 km/h (1 Bft) 98,00 %
03.10.2019 02:40 8,5 C 7,2 C 10,0 C 96 % 1018,2 hPa 0,0 l/m 0 min 0 min 0 W/m 3,2 km/h (1 Bft) 97,87 %
03.10.2019 02:42 8,4 C 7,2 C 10,0 C 96 % 1018,2 hPa 0,0 l/m 0 min 0 min 0 W/m 6,4 km/h (2 Bft) 97,87 %
03.10.2019 02:44 8,4 C 7,8 C 10,0 C 96 % 1018,2 hPa 0,0 l/m 0 min 0 min 0 W/m 6,4 km/h (2 Bft) 97,83 %
03.10.2019 02:46 8,4 C 7,2 C 10,0 C 96 % 1018,3 hPa 0,0 l/m 0 min 0 min 0 W/m 16,1 km/h (3 Bft) 95,74 %
03.10.2019 02:48 8,4 C 7,2 C 10,0 C 96 % 1018,2 hPa 0,0 l/m 0 min 0 min 0 W/m 3,2 km/h (1 Bft) 95,74 %
03.10.2019 02:50 8,4 C 7,2 C 10,0 C 96 % 1018,2 hPa 0,0 l/m 0 min 0 min 0 W/m 3,2 km/h (1 Bft) 95,74 %
03.10.2019 02:52 8,4 C 7,2 C 10,0 C 96 % 1018,2 hPa 0,0 l/m 0 min 0 min 0 W/m 3,2 km/h (1 Bft) 95,74 %
03.10.2019 02:54 8,4 C 7,2 C 10,0 C 96 % 1018,2 hPa 0,0 l/m 0 min 0 min 0 W/m 6,4 km/h (2 Bft) 93,62 %
03.10.2019 02:56 8,4 C 7,2 C 10,0 C 96 % 1018,2 hPa 0,0 l/m 0 min 0 min 0 W/m 6,4 km/h (2 Bft) 95,65 %
03.10.2019 02:58 8,4 C 7,2 C 10,0 C 96 % 1018,1 hPa 0,0 l/m 0 min 0 min 0 W/m 9,7 km/h (2 Bft) 95,74 %
03.10.2019 03:00 8,3 C 7,2 C 10,0 C 96 % 1018,1 hPa 0,0 l/m 0 min 0 min 0 W/m 3,2 km/h (1 Bft) 93,62 %
03.10.2019 03:02 8,3 C 7,2 C 10,0 C 96 % 1018,1 hPa 0,0 l/m 0 min 0 min 0 W/m 6,4 km/h (2 Bft) 95,74 %
03.10.2019 03:04 8,3 C 7,2 C 10,0 C 96 % 1018,1 hPa 0,0 l/m 0 min 0 min 0 W/m 0,0 km/h (0 Bft) 93,62 %
03.10.2019 03:06 8,3 C 7,2 C 10,0 C 96 % 1018,2 hPa 0,0 l/m 0 min 0 min 0 W/m 6,4 km/h (2 Bft) 95,74 %
03.10.2019 03:08 8,3 C 7,2 C 10,0 C 96 % 1018,1 hPa 0,0 l/m 0 min 0 min 0 W/m 6,4 km/h (2 Bft) 97,83 %
03.10.2019 03:10 8,3 C 7,2 C 10,0 C 96 % 1018,2 hPa 0,0 l/m 0 min 0 min 0 W/m 6,4 km/h (2 Bft) 97,87 %
03.10.2019 03:12 8,3 C 7,2 C 10,0 C 96 % 1018,2 hPa 0,0 l/m 0 min 0 min 0 W/m 3,2 km/h (1 Bft) 97,87 %
03.10.2019 03:14 8,3 C 7,2 C 10,0 C 96 % 1018,2 hPa 0,0 l/m 0 min 0 min 0 W/m 3,2 km/h (1 Bft) 95,74 %
03.10.2019 03:16 8,3 C 7,2 C 10,0 C 96 % 1018,2 hPa 0,0 l/m 0 min 0 min 0 W/m 3,2 km/h (1 Bft) 95,74 %
03.10.2019 03:18 8,3 C 7,2 C 10,0 C 96 % 1018,2 hPa 0,0 l/m 0 min 0 min 0 W/m 6,4 km/h (2 Bft) 95,74 %
03.10.2019 03:20 8,3 C 7,2 C 10,0 C 96 % 1018,2 hPa 0,0 l/m 0 min 0 min 0 W/m 6,4 km/h (2 Bft) 95,65 %
03.10.2019 03:22 8,3 C 7,2 C 10,0 C 96 % 1018,2 hPa 0,0 l/m 0 min 0 min 0 W/m 9,7 km/h (2 Bft) 97,87 %
03.10.2019 03:24 8,3 C 7,2 C 10,0 C 96 % 1018,2 hPa 0,0 l/m 0 min 0 min 0 W/m 6,4 km/h (2 Bft) 97,87 %
03.10.2019 03:26 8,3 C 7,2 C 10,0 C 96 % 1018,2 hPa 0,0 l/m 0 min 0 min 0 W/m 6,4 km/h (2 Bft) 97,87 %
03.10.2019 03:28 8,3 C 7,2 C 10,0 C 96 % 1018,3 hPa 0,0 l/m 0 min 0 min 0 W/m 6,4 km/h (2 Bft) 97,87 %
03.10.2019 03:30 8,3 C 7,2 C 10,0 C 96 % 1018,2 hPa 0,0 l/m 0 min 0 min 0 W/m 3,2 km/h (1 Bft) 97,87 %
03.10.2019 03:32 8,2 C 7,2 C 10,0 C 96 % 1018,2 hPa 0,0 l/m 0 min 0 min 0 W/m 3,2 km/h (1 Bft) 97,83 %
03.10.2019 03:34 8,2 C 7,2 C 10,0 C 96 % 1018,2 hPa 0,0 l/m 0 min 0 min 0 W/m 6,4 km/h (2 Bft) 97,87 %
03.10.2019 03:36 8,2 C 7,2 C 10,0 C 96 % 1018,2 hPa 0,0 l/m 0 min 0 min 0 W/m 6,4 km/h (2 Bft) 97,87 %
03.10.2019 03:38 8,3 C 7,8 C 10,0 C 96 % 1018,2 hPa 0,0 l/m 0 min 0 min 0 W/m 12,9 km/h (3 Bft) 95,74 %
03.10.2019 03:40 8,3 C 7,8 C 10,0 C 96 % 1018,2 hPa 0,0 l/m 0 min 0 min 0 W/m 6,4 km/h (2 Bft) 97,87 %
03.10.2019 03:42 8,3 C 7,8 C 10,0 C 96 % 1018,2 hPa 0,0 l/m 0 min 0 min 0 W/m 12,9 km/h (3 Bft) 97,83 %
03.10.2019 03:44 8,3 C 7,2 C 10,0 C 96 % 1018,1 hPa 0,0 l/m 0 min 0 min 0 W/m 9,7 km/h (2 Bft) 97,87 %
03.10.2019 03:46 8,3 C 7,2 C 10,0 C 96 % 1018,3 hPa 0,0 l/m 0 min 0 min 0 W/m 9,7 km/h (2 Bft) 95,74 %
03.10.2019 03:48 8,3 C 7,2 C 10,0 C 96 % 1018,2 hPa 0,0 l/m 0 min 0 min 0 W/m 12,9 km/h (3 Bft) 97,87 %
03.10.2019 03:50 8,3 C 7,2 C 10,0 C 96 % 1018,2 hPa 0,0 l/m 0 min 0 min 0 W/m 6,4 km/h (2 Bft) 97,87 %
03.10.2019 03:52 8,3 C 7,2 C 10,0 C 96 % 1018,1 hPa 0,0 l/m 0 min 0 min 0 W/m 9,7 km/h (2 Bft) 97,87 %
03.10.2019 03:54 8,3 C 7,2 C 10,0 C 96 % 1018,2 hPa 0,0 l/m 0 min 0 min 0 W/m 3,2 km/h (1 Bft) 100,00 %
03.10.2019 03:56 8,3 C 7,2 C 10,0 C 97 % 1018,2 hPa 0,0 l/m 0 min 0 min 0 W/m 3,2 km/h (1 Bft) 100,00 %
03.10.2019 03:58 8,3 C 7,2 C 10,0 C 97 % 1018,2 hPa 0,0 l/m 0 min 0 min 0 W/m 6,4 km/h (2 Bft) 100,00 %
03.10.2019 04:00 8,2 C 7,2 C 10,0 C 97 % 1018,1 hPa 0,0 l/m 0 min 0 min 0 W/m 6,4 km/h (2 Bft) 100,00 %
03.10.2019 04:02 8,2 C 7,2 C 10,0 C 97 % 1018,1 hPa 0,0 l/m 0 min 0 min 0 W/m 3,2 km/h (1 Bft) 100,00 %
03.10.2019 04:04 8,2 C 7,2 C 10,0 C 97 % 1018,1 hPa 0,0 l/m 0 min 0 min 0 W/m 12,9 km/h (3 Bft) 100,00 %
03.10.2019 04:06 8,2 C 7,2 C 10,0 C 97 % 1018,1 hPa 0,0 l/m 0 min 0 min 0 W/m 6,4 km/h (2 Bft) 100,00 %
03.10.2019 04:08 8,2 C 7,2 C 10,0 C 97 % 1018,0 hPa 0,0 l/m 0 min 0 min 0 W/m 3,2 km/h (1 Bft) 97,87 %
03.10.2019 04:10 8,2 C 7,2 C 10,0 C 97 % 1018,0 hPa 0,0 l/m 0 min 0 min 0 W/m 12,9 km/h (3 Bft) 97,87 %
03.10.2019 04:12 8,2 C 7,2 C 10,0 C 97 % 1018,0 hPa 0,0 l/m 0 min 0 min 0 W/m 3,2 km/h (1 Bft) 100,00 %
03.10.2019 04:14 8,2 C 7,2 C 10,0 C 97 % 1018,0 hPa 0,0 l/m 0 min 0 min 0 W/m 3,2 km/h (1 Bft) 97,87 %
03.10.2019 04:16 8,2 C 7,2 C 10,0 C 97 % 1018,0 hPa 0,0 l/m 0 min 0 min 0 W/m 0,0 km/h (0 Bft) 100,00 %
03.10.2019 04:18 8,2 C 7,2 C 10,0 C 97 % 1018,0 hPa 0,0 l/m 0 min 0 min 0 W/m 3,2 km/h (1 Bft) 97,83 %
03.10.2019 04:20 8,2 C 7,2 C 10,0 C 97 % 1018,0 hPa 0,0 l/m 0 min 0 min 0 W/m 3,2 km/h (1 Bft) 61,70 %
03.10.2019 04:22 8,2 C 7,2 C 10,0 C 97 % 1018,0 hPa 0,0 l/m 0 min 0 min 0 W/m 3,2 km/h (1 Bft) 90,00 %
03.10.2019 04:24 8,2 C 7,2 C 10,0 C 97 % 1018,0 hPa 0,0 l/m 0 min 0 min 0 W/m 6,4 km/h (2 Bft) 97,87 %
03.10.2019 04:26 8,2 C 7,2 C 10,0 C 97 % 1018,0 hPa 0,0 l/m 0 min 0 min 0 W/m 0,0 km/h (0 Bft) 93,62 %
03.10.2019 04:28 8,2 C 7,2 C 10,0 C 97 % 1018,0 hPa 0,0 l/m 0 min 0 min 0 W/m 3,2 km/h (1 Bft) 97,83 %
03.10.2019 04:30 8,2 C 7,2 C 10,0 C 97 % 1017,9 hPa 0,0 l/m 0 min 0 min 0 W/m 3,2 km/h (1 Bft) 97,87 %
03.10.2019 04:32 8,2 C 7,2 C 10,0 C 97 % 1018,0 hPa 0,0 l/m 0 min 0 min 0 W/m 6,4 km/h (2 Bft) 97,87 %
03.10.2019 04:34 8,1 C 7,2 C 10,0 C 97 % 1018,0 hPa 0,0 l/m 0 min 0 min 0 W/m 12,9 km/h (3 Bft) 95,74 %
03.10.2019 04:36 8,1 C 7,2 C 10,0 C 97 % 1018,0 hPa 0,0 l/m 0 min 0 min 0 W/m 6,4 km/h (2 Bft) 95,74 %
03.10.2019 04:38 8,1 C 7,2 C 10,0 C 97 % 1017,9 hPa 0,0 l/m 0 min 0 min 0 W/m 6,4 km/h (2 Bft) 97,87 %
03.10.2019 04:40 8,1 C 7,2 C 10,0 C 97 % 1017,9 hPa 0,0 l/m 0 min 0 min 0 W/m 3,2 km/h (1 Bft) 97,83 %
03.10.2019 04:42 8,1 C 7,2 C 10,0 C 97 % 1017,9 hPa 0,0 l/m 0 min 0 min 0 W/m 0,0 km/h (0 Bft) 95,74 %
03.10.2019 04:44 8,1 C 7,2 C 10,0 C 97 % 1017,9 hPa 0,0 l/m 0 min 0 min 0 W/m 3,2 km/h (1 Bft) 95,74 %
03.10.2019 04:46 8,1 C 7,2 C 10,0 C 97 % 1017,9 hPa 0,0 l/m 0 min 0 min 0 W/m 3,2 km/h (1 Bft) 97,87 %
03.10.2019 04:48 8,1 C 7,2 C 10,0 C 97 % 1017,9 hPa 0,0 l/m 0 min 0 min 0 W/m 12,9 km/h (3 Bft) 95,74 %
03.10.2019 04:50 8,1 C 7,2 C 10,0 C 97 % 1018,0 hPa 0,0 l/m 0 min 0 min 0 W/m 6,4 km/h (2 Bft) 95,74 %
03.10.2019 04:52 8,1 C 7,2 C 10,0 C 97 % 1018,0 hPa 0,0 l/m 0 min 0 min 0 W/m 3,2 km/h (1 Bft) 95,65 %
03.10.2019 04:54 8,1 C 7,2 C 10,0 C 97 % 1018,0 hPa 0,0 l/m 0 min 0 min 0 W/m 0,0 km/h (0 Bft) 95,74 %
03.10.2019 04:56 8,1 C 7,2 C 10,0 C 97 % 1018,0 hPa 0,0 l/m 0 min 0 min 0 W/m 6,4 km/h (2 Bft) 95,74 %
03.10.2019 04:58 8,0 C 6,7 C 10,0 C 97 % 1018,0 hPa 0,0 l/m 0 min 0 min 0 W/m 3,2 km/h (1 Bft) 95,74 %
03.10.2019 05:00 8,0 C 6,7 C 10,0 C 97 % 1017,9 hPa 0,0 l/m 0 min 0 min 0 W/m 3,2 km/h (1 Bft) 95,74 %
03.10.2019 05:02 8,0 C 6,7 C 10,0 C 97 % 1017,9 hPa 0,0 l/m 0 min 0 min 0 W/m 3,2 km/h (1 Bft) 93,62 %
03.10.2019 05:04 7,9 C 6,7 C 10,0 C 97 % 1018,0 hPa 0,0 l/m 0 min 0 min 0 W/m 3,2 km/h (1 Bft) 97,83 %
03.10.2019 05:06 7,9 C 6,7 C 10,0 C 97 % 1018,0 hPa 0,0 l/m 0 min 0 min 0 W/m 3,2 km/h (1 Bft) 95,74 %
03.10.2019 05:08 7,9 C 6,7 C 10,0 C 97 % 1017,9 hPa 0,0 l/m 0 min 0 min 0 W/m 3,2 km/h (1 Bft) 97,87 %
03.10.2019 05:10 7,9 C 6,7 C 10,0 C 97 % 1018,0 hPa 0,0 l/m 0 min 0 min 0 W/m 3,2 km/h (1 Bft) 97,87 %
03.10.2019 05:12 7,8 C 6,7 C 10,0 C 97 % 1018,0 hPa 0,0 l/m 0 min 0 min 0 W/m 0,0 km/h (0 Bft) 95,74 %
03.10.2019 05:14 7,8 C 6,7 C 10,0 C 97 % 1018,0 hPa 0,0 l/m 0 min 0 min 0 W/m 3,2 km/h (1 Bft) 97,87 %
03.10.2019 05:16 7,8 C 6,7 C 10,0 C 97 % 1018,0 hPa 0,0 l/m 0 min 0 min 0 W/m 3,2 km/h (1 Bft) 97,83 %
03.10.2019 05:18 7,8 C 6,7 C 10,0 C 97 % 1017,9 hPa 0,0 l/m 0 min 0 min 0 W/m 3,2 km/h (1 Bft) 95,74 %
03.10.2019 05:20 7,8 C 6,7 C 10,0 C 97 % 1017,9 hPa 0,0 l/m 0 min 0 min 0 W/m 3,2 km/h (1 Bft) 95,74 %
03.10.2019 05:22 7,7 C 6,7 C 10,0 C 97 % 1017,9 hPa 0,0 l/m 0 min 0 min 0 W/m 3,2 km/h (1 Bft) 97,87 %
03.10.2019 05:24 7,7 C 6,7 C 10,0 C 97 % 1017,9 hPa 0,0 l/m 0 min 0 min 0 W/m 3,2 km/h (1 Bft) 95,74 %
03.10.2019 05:26 7,7 C 6,7 C 10,0 C 97 % 1017,9 hPa 0,0 l/m 0 min 0 min 0 W/m 3,2 km/h (1 Bft) 97,87 %
03.10.2019 05:28 7,7 C 6,7 C 10,0 C 97 % 1018,0 hPa 0,0 l/m 0 min 0 min 0 W/m 9,7 km/h (2 Bft) 97,83 %
03.10.2019 05:30 7,7 C 6,7 C 10,0 C 97 % 1018,0 hPa 0,0 l/m 0 min 0 min 0 W/m 6,4 km/h (2 Bft) 97,87 %
03.10.2019 05:32 7,7 C 6,7 C 10,0 C 97 % 1018,0 hPa 0,0 l/m 0 min 0 min 0 W/m 3,2 km/h (1 Bft) 97,87 %
03.10.2019 05:34 7,7 C 6,7 C 10,0 C 97 % 1018,0 hPa 0,0 l/m 0 min 0 min 0 W/m 3,2 km/h (1 Bft) 97,87 %
03.10.2019 05:36 7,6 C 6,7 C 10,0 C 97 % 1018,0 hPa 0,0 l/m 0 min 0 min 0 W/m 6,4 km/h (2 Bft) 97,87 %
03.10.2019 05:38 7,6 C 6,7 C 10,0 C 97 % 1018,0 hPa 0,0 l/m 0 min 0 min 0 W/m 6,4 km/h (2 Bft) 97,87 %
03.10.2019 05:40 7,6 C 6,7 C 10,0 C 97 % 1017,9 hPa 0,0 l/m 0 min 0 min 0 W/m 3,2 km/h (1 Bft) 100,00 %
03.10.2019 05:42 7,6 C 6,7 C 10,0 C 97 % 1018,0 hPa 0,0 l/m 0 min 0 min 0 W/m 3,2 km/h (1 Bft) 97,87 %
03.10.2019 05:44 7,6 C 6,7 C 10,0 C 97 % 1018,0 hPa 0,0 l/m 0 min 0 min 0 W/m 3,2 km/h (1 Bft) 97,87 %
03.10.2019 05:46 7,6 C 6,7 C 10,0 C 97 % 1018,1 hPa 0,0 l/m 0 min 0 min 0 W/m 0,0 km/h (0 Bft) 97,87 %
03.10.2019 05:48 7,6 C 6,7 C 10,0 C 97 % 1018,0 hPa 0,0 l/m 0 min 0 min 0 W/m 6,4 km/h (2 Bft) 95,74 %
03.10.2019 05:50 7,6 C 6,7 C 10,0 C 97 % 1018,0 hPa 0,0 l/m 0 min 0 min 0 W/m 6,4 km/h (2 Bft) 100,00 %
03.10.2019 05:52 7,6 C 6,7 C 10,0 C 97 % 1018,1 hPa 0,0 l/m 0 min 0 min 0 W/m 3,2 km/h (1 Bft) 100,00 %
03.10.2019 05:54 7,6 C 6,7 C 10,0 C 97 % 1018,1 hPa 0,0 l/m 0 min 0 min 0 W/m 3,2 km/h (1 Bft) 100,00 %
03.10.2019 05:56 7,6 C 7,2 C 10,0 C 97 % 1018,1 hPa 0,0 l/m 0 min 0 min 0 W/m 3,2 km/h (1 Bft) 97,87 %
03.10.2019 05:58 7,6 C 7,2 C 10,0 C 97 % 1018,1 hPa 0,0 l/m 0 min 0 min 0 W/m 3,2 km/h (1 Bft) 100,00 %
03.10.2019 06:00 7,6 C 7,2 C 10,0 C 97 % 1018,2 hPa 0,0 l/m 0 min 0 min 0 W/m 3,2 km/h (1 Bft) 100,00 %
03.10.2019 06:02 7,6 C 7,2 C 10,0 C 97 % 1018,2 hPa 0,0 l/m 0 min 0 min 0 W/m 0,0 km/h (0 Bft) 97,83 %
03.10.2019 06:04 7,6 C 7,2 C 10,0 C 97 % 1018,2 hPa 0,0 l/m 0 min 0 min 0 W/m 3,2 km/h (1 Bft) 100,00 %
03.10.2019 06:08 7,6 C 6,7 C 10,0 C 97 % 1018,3 hPa 0,0 l/m 0 min 0 min 0 W/m 3,2 km/h (1 Bft) 100,00 %
03.10.2019 06:10 7,7 C 7,2 C 10,0 C 97 % 1018,2 hPa 0,0 l/m 0 min 0 min 0 W/m 6,4 km/h (2 Bft) 100,00 %
03.10.2019 06:12 7,7 C 7,2 C 10,0 C 97 % 1018,2 hPa 0,0 l/m 0 min 0 min 0 W/m 0,0 km/h (0 Bft) 100,00 %
03.10.2019 06:14 7,7 C 7,2 C 10,0 C 97 % 1018,2 hPa 0,0 l/m 0 min 0 min 0 W/m 3,2 km/h (1 Bft) 100,00 %
03.10.2019 06:16 7,7 C 7,2 C 10,0 C 97 % 1018,3 hPa 0,0 l/m 0 min 0 min 0 W/m 3,2 km/h (1 Bft) 100,00 %
03.10.2019 06:18 7,7 C 7,2 C 10,0 C 97 % 1018,2 hPa 0,0 l/m 0 min 0 min 0 W/m 3,2 km/h (1 Bft) 100,00 %
03.10.2019 06:20 7,7 C 7,2 C 10,0 C 97 % 1018,2 hPa 0,0 l/m 0 min 0 min 0 W/m 3,2 km/h (1 Bft) 100,00 %
03.10.2019 06:22 7,7 C 7,2 C 10,0 C 97 % 1018,2 hPa 0,0 l/m 0 min 0 min 0 W/m 6,4 km/h (2 Bft) 100,00 %
03.10.2019 06:24 7,7 C 7,2 C 10,0 C 97 % 1018,2 hPa 0,0 l/m 0 min 0 min 0 W/m 9,7 km/h (2 Bft) 100,00 %
03.10.2019 06:26 7,7 C 7,2 C 10,0 C 97 % 1018,2 hPa 0,0 l/m 0 min 0 min 0 W/m 0,0 km/h (0 Bft) 100,00 %
03.10.2019 06:28 7,7 C 7,2 C 10,0 C 97 % 1018,2 hPa 0,0 l/m 0 min 0 min 0 W/m 3,2 km/h (1 Bft) 100,00 %
03.10.2019 06:30 7,7 C 7,2 C 10,0 C 97 % 1018,2 hPa 0,0 l/m 0 min 0 min 0 W/m 6,4 km/h (2 Bft) 100,00 %
03.10.2019 06:32 7,7 C 7,2 C 10,0 C 97 % 1018,2 hPa 0,0 l/m 0 min 0 min 0 W/m 0,0 km/h (0 Bft) 97,87 %
03.10.2019 06:34 7,7 C 7,2 C 10,0 C 97 % 1018,2 hPa 0,0 l/m 0 min 0 min 0 W/m 3,2 km/h (1 Bft) 100,00 %
03.10.2019 06:36 7,7 C 7,2 C 10,0 C 98 % 1018,1 hPa 0,0 l/m 0 min 0 min 0 W/m 3,2 km/h (1 Bft) 97,87 %
03.10.2019 06:38 7,7 C 7,2 C 10,0 C 98 % 1018,2 hPa 0,0 l/m 0 min 0 min 0 W/m 0,0 km/h (0 Bft) 97,83 %
03.10.2019 06:40 7,7 C 7,2 C 10,0 C 98 % 1018,2 hPa 0,0 l/m 0 min 0 min 0 W/m 0,0 km/h (0 Bft) 95,74 %
03.10.2019 06:42 7,7 C 7,2 C 10,0 C 98 % 1018,2 hPa 0,0 l/m 0 min 0 min 0 W/m 3,2 km/h (1 Bft) 97,87 %
03.10.2019 06:44 7,7 C 7,2 C 10,0 C 98 % 1018,2 hPa 0,0 l/m 0 min 0 min 0 W/m 0,0 km/h (0 Bft) 97,87 %
03.10.2019 06:46 7,7 C 7,2 C 10,0 C 98 % 1018,2 hPa 0,0 l/m 0 min 0 min 0 W/m 3,2 km/h (1 Bft) 97,87 %
03.10.2019 06:48 7,7 C 7,2 C 10,0 C 98 % 1018,2 hPa 0,0 l/m 0 min 0 min 0 W/m 3,2 km/h (1 Bft) 95,74 %
03.10.2019 06:50 7,7 C 7,2 C 10,0 C 98 % 1018,2 hPa 0,0 l/m 0 min 0 min 0 W/m 6,4 km/h (2 Bft) 95,65 %
03.10.2019 06:52 7,8 C 7,2 C 10,0 C 98 % 1018,2 hPa 0,0 l/m 0 min 0 min 0 W/m 3,2 km/h (1 Bft) 97,87 %
03.10.2019 06:54 7,8 C 7,2 C 10,0 C 98 % 1018,2 hPa 0,0 l/m 0 min 0 min 0 W/m 3,2 km/h (1 Bft) 97,87 %
03.10.2019 06:56 7,8 C 7,2 C 10,0 C 98 % 1018,2 hPa 0,0 l/m 0 min 0 min 0 W/m 0,0 km/h (0 Bft) 95,74 %
03.10.2019 06:58 7,8 C 7,2 C 10,0 C 98 % 1018,2 hPa 0,0 l/m 0 min 0 min 0 W/m 3,2 km/h (1 Bft) 97,87 %
03.10.2019 07:00 7,8 C 7,2 C 10,0 C 98 % 1018,2 hPa 0,0 l/m 0 min 0 min 0 W/m 3,2 km/h (1 Bft) 97,83 %
03.10.2019 07:02 7,8 C 7,2 C 10,0 C 98 % 1018,2 hPa 0,0 l/m 0 min 0 min 0 W/m 0,0 km/h (0 Bft) 95,74 %
03.10.2019 07:04 7,8 C 7,2 C 10,0 C 98 % 1018,1 hPa 0,0 l/m 0 min 0 min 0 W/m 6,4 km/h (2 Bft) 95,74 %
03.10.2019 07:06 7,8 C 7,2 C 10,0 C 98 % 1018,2 hPa 0,0 l/m 0 min 0 min 0 W/m 9,7 km/h (2 Bft) 95,74 %
03.10.2019 07:08 7,8 C 7,2 C 10,0 C 98 % 1018,2 hPa 0,0 l/m 0 min 0 min 0 W/m 3,2 km/h (1 Bft) 93,62 %
03.10.2019 07:10 7,8 C 7,2 C 10,0 C 98 % 1018,2 hPa 0,0 l/m 0 min 0 min 0 W/m 12,9 km/h (3 Bft) 95,74 %
03.10.2019 07:12 7,8 C 7,2 C 10,0 C 98 % 1018,3 hPa 0,0 l/m 0 min 0 min 0 W/m 0,0 km/h (0 Bft) 95,65 %
03.10.2019 07:14 7,8 C 7,2 C 10,0 C 98 % 1018,3 hPa 0,0 l/m 0 min 0 min 0 W/m 0,0 km/h (0 Bft) 95,74 %
03.10.2019 07:16 7,8 C 7,2 C 10,0 C 98 % 1018,3 hPa 0,0 l/m 0 min 0 min 0 W/m 3,2 km/h (1 Bft) 93,62 %
03.10.2019 07:18 7,8 C 7,2 C 10,0 C 98 % 1018,3 hPa 0,0 l/m 0 min 0 min 0 W/m 6,4 km/h (2 Bft) 93,62 %
03.10.2019 07:20 7,8 C 7,2 C 10,0 C 98 % 1018,4 hPa 0,0 l/m 0 min 0 min 0 W/m 3,2 km/h (1 Bft) 91,49 %
03.10.2019 07:22 7,8 C 7,2 C 10,0 C 98 % 1018,4 hPa 0,0 l/m 0 min 0 min 0 W/m 0,0 km/h (0 Bft) 95,74 %
03.10.2019 07:24 7,8 C 7,2 C 10,0 C 98 % 1018,4 hPa 0,0 l/m 0 min 0 min 0 W/m 6,4 km/h (2 Bft) 95,65 %
03.10.2019 07:26 7,8 C 7,2 C 10,0 C 98 % 1018,4 hPa 0,0 l/m 0 min 0 min 0 W/m 6,4 km/h (2 Bft) 93,62 %
03.10.2019 07:28 7,9 C 7,2 C 10,0 C 98 % 1018,4 hPa 0,0 l/m 0 min 0 min 0 W/m 6,4 km/h (2 Bft) 95,74 %
03.10.2019 07:30 7,9 C 7,2 C 10,0 C 98 % 1018,4 hPa 0,0 l/m 0 min 0 min 0 W/m 6,4 km/h (2 Bft) 93,62 %
03.10.2019 07:32 7,9 C 7,2 C 10,0 C 98 % 1018,4 hPa 0,0 l/m 0 min 0 min 0 W/m 6,4 km/h (2 Bft) 93,62 %
03.10.2019 07:34 7,9 C 7,2 C 10,0 C 98 % 1018,4 hPa 0,0 l/m 0 min 0 min 0 W/m 6,4 km/h (2 Bft) 89,36 %
03.10.2019 07:36 7,9 C 7,2 C 10,0 C 98 % 1018,4 hPa 0,0 l/m 0 min 0 min 0 W/m 3,2 km/h (1 Bft) 93,48 %
03.10.2019 07:38 7,9 C 7,2 C 10,0 C 98 % 1018,5 hPa 0,0 l/m 0 min 0 min 0 W/m 6,4 km/h (2 Bft) 91,49 %
03.10.2019 07:40 7,9 C 7,2 C 10,0 C 98 % 1018,5 hPa 0,0 l/m 0 min 0 min 0 W/m 0,0 km/h (0 Bft) 95,74 %
03.10.2019 07:42 7,9 C 7,2 C 10,0 C 98 % 1018,5 hPa 0,0 l/m 0 min 0 min 0 W/m 3,2 km/h (1 Bft) 95,74 %
03.10.2019 07:44 7,9 C 7,2 C 10,0 C 98 % 1018,5 hPa 0,0 l/m 0 min 0 min 5 W/m 6,4 km/h (2 Bft) 93,62 %
03.10.2019 07:46 7,8 C 7,2 C 10,0 C 98 % 1018,6 hPa 0,0 l/m 0 min 0 min 5 W/m 3,2 km/h (1 Bft) 95,74 %
03.10.2019 07:48 7,8 C 7,2 C 10,0 C 98 % 1018,5 hPa 0,0 l/m 0 min 0 min 6 W/m 6,4 km/h (2 Bft) 97,83 %
03.10.2019 07:50 7,8 C 7,2 C 10,0 C 98 % 1018,5 hPa 0,0 l/m 0 min 0 min 7 W/m 6,4 km/h (2 Bft) 97,87 %
03.10.2019 07:52 7,8 C 7,2 C 10,0 C 98 % 1018,4 hPa 0,0 l/m 0 min 0 min 7 W/m 3,2 km/h (1 Bft) 97,87 %
03.10.2019 07:54 7,8 C 7,2 C 10,0 C 98 % 1018,4 hPa 0,0 l/m 0 min 0 min 9 W/m 3,2 km/h (1 Bft) 93,62 %
03.10.2019 07:56 7,8 C 7,2 C 10,0 C 98 % 1018,5 hPa 0,0 l/m 0 min 0 min 11 W/m 6,4 km/h (2 Bft) 97,87 %
03.10.2019 07:58 7,8 C 7,2 C 10,0 C 98 % 1018,5 hPa 0,0 l/m 0 min 0 min 12 W/m 6,4 km/h (2 Bft) 97,87 %
03.10.2019 08:00 7,8 C 7,2 C 10,0 C 98 % 1018,5 hPa 0,0 l/m 0 min 0 min 13 W/m 0,0 km/h (0 Bft) 97,83 %
03.10.2019 08:02 7,8 C 7,2 C 10,0 C 98 % 1018,5 hPa 0,0 l/m 0 min 0 min 15 W/m 3,2 km/h (1 Bft) 93,62 %
03.10.2019 08:04 7,8 C 7,2 C 10,0 C 98 % 1018,5 hPa 0,0 l/m 0 min 0 min 17 W/m 6,4 km/h (2 Bft) 95,74 %
03.10.2019 08:06 7,8 C 7,8 C 10,0 C 98 % 1018,5 hPa 0,0 l/m 0 min 0 min 18 W/m 0,0 km/h (0 Bft) 95,74 %
03.10.2019 08:08 7,8 C 7,8 C 10,0 C 98 % 1018,5 hPa 0,0 l/m 0 min 0 min 20 W/m 3,2 km/h (1 Bft) 95,74 %
03.10.2019 08:10 7,8 C 7,8 C 10,0 C 98 % 1018,5 hPa 0,0 l/m 0 min 0 min 21 W/m 3,2 km/h (1 Bft) 97,83 %
03.10.2019 08:12 7,9 C 7,8 C 10,0 C 98 % 1018,6 hPa 0,0 l/m 0 min 0 min 23 W/m 6,4 km/h (2 Bft) 97,87 %
03.10.2019 08:14 7,9 C 7,8 C 10,0 C 98 % 1018,5 hPa 0,0 l/m 0 min 0 min 24 W/m 3,2 km/h (1 Bft) 95,74 %
03.10.2019 08:16 7,9 C 7,8 C 10,0 C 98 % 1018,6 hPa 0,0 l/m 0 min 0 min 26 W/m 6,4 km/h (2 Bft) 100,00 %
03.10.2019 08:18 7,9 C 7,8 C 10,0 C 98 % 1018,6 hPa 0,0 l/m 0 min 0 min 31 W/m 6,4 km/h (2 Bft) 100,00 %
03.10.2019 08:20 7,9 C 7,8 C 10,0 C 98 % 1018,7 hPa 0,0 l/m 0 min 0 min 33 W/m 3,2 km/h (1 Bft) 100,00 %
03.10.2019 08:22 8,0 C 7,8 C 10,0 C 98 % 1018,7 hPa 0,0 l/m 0 min 0 min 31 W/m 16,1 km/h (3 Bft) 100,00 %
03.10.2019 08:24 8,0 C 7,8 C 10,0 C 98 % 1018,8 hPa 0,0 l/m 0 min 0 min 26 W/m 12,9 km/h (3 Bft) 100,00 %
03.10.2019 08:26 8,1 C 7,8 C 10,0 C 98 % 1018,7 hPa 0,0 l/m 0 min 0 min 26 W/m 12,9 km/h (3 Bft) 100,00 %
03.10.2019 08:28 8,1 C 7,8 C 6,1 C 98 % 1018,7 hPa 0,0 l/m 0 min 0 min 37 W/m 0,0 km/h (0 Bft) 100,00 %
03.10.2019 08:30 8,1 C 7,8 C 6,1 C 98 % 1018,7 hPa 0,0 l/m 0 min 0 min 42 W/m 6,4 km/h (2 Bft) 100,00 %
03.10.2019 08:32 8,1 C 8,3 C 6,1 C 98 % 1018,8 hPa 0,0 l/m 0 min 0 min 47 W/m 6,4 km/h (2 Bft) 100,00 %
03.10.2019 08:34 8,1 C 8,3 C 6,1 C 98 % 1018,7 hPa 0,0 l/m 0 min 0 min 49 W/m 6,4 km/h (2 Bft) 100,00 %
03.10.2019 08:36 8,2 C 8,3 C 6,1 C 98 % 1018,8 hPa 0,0 l/m 0 min 0 min 56 W/m 0,0 km/h (0 Bft) 100,00 %
03.10.2019 08:38 8,2 C 8,3 C 6,1 C 98 % 1018,7 hPa 0,0 l/m 0 min 0 min 60 W/m 6,4 km/h (2 Bft) 97,87 %
03.10.2019 08:40 8,2 C 8,3 C 6,1 C 98 % 1018,7 hPa 0,0 l/m 0 min 0 min 56 W/m 6,4 km/h (2 Bft) 97,87 %
03.10.2019 08:42 8,3 C 8,3 C 6,1 C 98 % 1018,8 hPa 0,0 l/m 0 min 0 min 55 W/m 12,9 km/h (3 Bft) 100,00 %
03.10.2019 08:44 8,3 C 8,3 C 6,1 C 98 % 1018,8 hPa 0,0 l/m 0 min 0 min 58 W/m 6,4 km/h (2 Bft) 100,00 %
03.10.2019 08:46 8,4 C 8,3 C 6,1 C 98 % 1018,9 hPa 0,0 l/m 0 min 0 min 62 W/m 12,9 km/h (3 Bft) 100,00 %
03.10.2019 08:48 8,4 C 8,9 C 6,1 C 98 % 1018,8 hPa 0,0 l/m 0 min 0 min 63 W/m 9,7 km/h (2 Bft) 100,00 %
03.10.2019 08:50 8,4 C 8,9 C 6,1 C 98 % 1018,8 hPa 0,0 l/m 0 min 0 min 51 W/m 6,4 km/h (2 Bft) 100,00 %
03.10.2019 08:52 8,4 C 8,3 C 6,1 C 98 % 1018,9 hPa 0,0 l/m 0 min 0 min 45 W/m 6,4 km/h (2 Bft) 100,00 %
03.10.2019 08:54 8,5 C 8,3 C 6,1 C 98 % 1018,8 hPa 0,0 l/m 0 min 0 min 48 W/m 12,9 km/h (3 Bft) 100,00 %
03.10.2019 08:56 8,5 C 8,3 C 6,1 C 98 % 1018,8 hPa 0,0 l/m 0 min 0 min 52 W/m 3,2 km/h (1 Bft) 100,00 %
03.10.2019 08:58 8,6 C 8,9 C 6,1 C 98 % 1018,8 hPa 0,0 l/m 0 min 0 min 58 W/m 6,4 km/h (2 Bft) 100,00 %
03.10.2019 09:00 8,6 C 8,9 C 6,1 C 98 % 1018,8 hPa 0,0 l/m 0 min 0 min 74 W/m 3,2 km/h (1 Bft) 100,00 %
03.10.2019 09:02 8,6 C 8,9 C 6,1 C 98 % 1018,8 hPa 0,0 l/m 0 min 0 min 72 W/m 6,4 km/h (2 Bft) 100,00 %
03.10.2019 09:04 8,7 C 8,9 C 6,1 C 98 % 1018,8 hPa 0,0 l/m 0 min 0 min 71 W/m 3,2 km/h (1 Bft) 100,00 %
03.10.2019 09:06 8,7 C 9,4 C 6,1 C 98 % 1018,9 hPa 0,0 l/m 0 min 0 min 86 W/m 3,2 km/h (1 Bft) 100,00 %
03.10.2019 09:08 8,7 C 9,4 C 6,1 C 98 % 1018,8 hPa 0,0 l/m 0 min 0 min 59 W/m 3,2 km/h (1 Bft) 100,00 %
03.10.2019 09:10 8,7 C 8,9 C 6,1 C 98 % 1018,8 hPa 0,0 l/m 0 min 0 min 58 W/m 3,2 km/h (1 Bft) 100,00 %
03.10.2019 09:12 8,8 C 9,4 C 6,1 C 98 % 1018,9 hPa 0,0 l/m 0 min 0 min 69 W/m 6,4 km/h (2 Bft) 100,00 %
03.10.2019 09:14 8,8 C 9,4 C 6,1 C 98 % 1018,9 hPa 0,0 l/m 0 min 0 min 67 W/m 3,2 km/h (1 Bft) 100,00 %
03.10.2019 09:16 8,8 C 9,4 C 6,1 C 98 % 1018,8 hPa 0,0 l/m 0 min 0 min 68 W/m 6,4 km/h (2 Bft) 100,00 %
03.10.2019 09:18 8,9 C 9,4 C 6,1 C 98 % 1018,8 hPa 0,0 l/m 0 min 0 min 79 W/m 6,4 km/h (2 Bft) 100,00 %
03.10.2019 09:20 8,9 C 9,4 C 6,1 C 98 % 1018,9 hPa 0,0 l/m 0 min 0 min 84 W/m 0,0 km/h (0 Bft) 97,87 %
03.10.2019 09:22 8,9 C 9,4 C 6,1 C 98 % 1019,0 hPa 0,0 l/m 0 min 0 min 74 W/m 6,4 km/h (2 Bft) 100,00 %
03.10.2019 09:24 8,9 C 9,4 C 6,1 C 98 % 1019,0 hPa 0,0 l/m 0 min 0 min 106 W/m 3,2 km/h (1 Bft) 100,00 %
03.10.2019 09:26 9,0 C 10,0 C 6,1 C 98 % 1018,9 hPa 0,0 l/m 2 min 0 min 155 W/m 6,4 km/h (2 Bft) 100,00 %
03.10.2019 09:28 9,0 C 10,6 C 6,1 C 98 % 1018,9 hPa 0,0 l/m 2 min 0 min 189 W/m 6,4 km/h (2 Bft) 100,00 %
03.10.2019 09:30 9,1 C 10,6 C 6,1 C 98 % 1018,9 hPa 0,0 l/m 2 min 0 min 175 W/m 9,7 km/h (2 Bft) 100,00 %
03.10.2019 09:32 9,2 C 10,6 C 6,1 C 98 % 1018,8 hPa 0,0 l/m 2 min 0 min 162 W/m 9,7 km/h (2 Bft) 97,83 %
03.10.2019 09:34 9,2 C 10,6 C 6,1 C 98 % 1018,9 hPa 0,0 l/m 0 min 0 min 122 W/m 6,4 km/h (2 Bft) 100,00 %
03.10.2019 09:36 9,3 C 10,0 C 6,1 C 98 % 1018,8 hPa 0,0 l/m 0 min 0 min 85 W/m 16,1 km/h (3 Bft) 100,00 %
03.10.2019 09:38 9,3 C 10,0 C 6,1 C 98 % 1018,9 hPa 0,0 l/m 0 min 0 min 84 W/m 12,9 km/h (3 Bft) 100,00 %
03.10.2019 09:40 9,4 C 10,0 C 6,1 C 98 % 1018,9 hPa 0,0 l/m 0 min 0 min 89 W/m 16,1 km/h (3 Bft) 95,74 %
03.10.2019 09:42 9,4 C 9,4 C 6,1 C 98 % 1018,9 hPa 0,0 l/m 0 min 0 min 69 W/m 12,9 km/h (3 Bft) 97,87 %
03.10.2019 09:44 9,4 C 10,0 C 6,1 C 98 % 1018,8 hPa 0,0 l/m 0 min 0 min 75 W/m 12,9 km/h (3 Bft) 97,83 %
03.10.2019 09:46 9,4 C 10,0 C 6,1 C 98 % 1018,9 hPa 0,0 l/m 0 min 0 min 98 W/m 16,1 km/h (3 Bft) 97,87 %
03.10.2019 09:48 9,4 C 10,0 C 6,1 C 98 % 1018,8 hPa 0,0 l/m 0 min 0 min 65 W/m 12,9 km/h (3 Bft) 97,87 %
03.10.2019 09:50 9,4 C 10,6 C 6,1 C 98 % 1018,8 hPa 0,0 l/m 0 min 0 min 119 W/m 12,9 km/h (3 Bft) 97,87 %
03.10.2019 09:52 9,5 C 12,2 C 6,1 C 98 % 1018,7 hPa 0,0 l/m 2 min 0 min 204 W/m 12,9 km/h (3 Bft) 97,87 %
03.10.2019 09:54 9,5 C 12,8 C 6,1 C 98 % 1018,7 hPa 0,0 l/m 2 min 0 min 281 W/m 9,7 km/h (2 Bft) 97,87 %
03.10.2019 09:56 9,6 C 13,3 C 6,1 C 98 % 1018,8 hPa 0,0 l/m 2 min 0 min 287 W/m 12,9 km/h (3 Bft) 97,83 %
03.10.2019 09:58 9,6 C 12,8 C 6,1 C 98 % 1018,7 hPa 0,0 l/m 2 min 0 min 187 W/m 19,3 km/h (3 Bft) 93,62 %
03.10.2019 10:00 9,7 C 12,8 C 6,1 C 98 % 1018,7 hPa 0,0 l/m 0 min 0 min 139 W/m 22,5 km/h (4 Bft) 93,62 %
03.10.2019 10:02 9,8 C 12,8 C 6,1 C 98 % 1018,8 hPa 0,0 l/m 0 min 0 min 137 W/m 9,7 km/h (2 Bft) 95,74 %
03.10.2019 10:04 9,8 C 12,8 C 6,1 C 98 % 1018,8 hPa 0,0 l/m 2 min 0 min 251 W/m 6,4 km/h (2 Bft) 91,49 %
03.10.2019 10:06 9,9 C 12,2 C 6,1 C 98 % 1018,8 hPa 0,0 l/m 2 min 0 min 301 W/m 9,7 km/h (2 Bft) 91,49 %
03.10.2019 10:08 9,9 C 12,8 C 6,1 C 98 % 1018,8 hPa 0,0 l/m 2 min 0 min 208 W/m 9,7 km/h (2 Bft) 95,65 %
03.10.2019 10:10 10,0 C 12,2 C 6,1 C 98 % 1018,9 hPa 0,0 l/m 2 min 0 min 284 W/m 9,7 km/h (2 Bft) 95,74 %
03.10.2019 10:14 10,1 C 11,1 C 6,1 C 98 % 1018,9 hPa 0,0 l/m 0 min 0 min 111 W/m 6,4 km/h (2 Bft) 100,00 %
03.10.2019 10:16 10,2 C 11,7 C 6,1 C 98 % 1018,8 hPa 0,0 l/m 0 min 0 min 168 W/m 6,4 km/h (2 Bft) 92,16 %
03.10.2019 10:18 10,2 C 12,8 C 6,1 C 98 % 1018,8 hPa 0,0 l/m 2 min 0 min 269 W/m 6,4 km/h (2 Bft) 96,30 %
03.10.2019 10:20 10,3 C 13,3 C 6,1 C 98 % 1018,8 hPa 0,0 l/m 2 min 0 min 260 W/m 9,7 km/h (2 Bft) 96,00 %
03.10.2019 10:22 10,4 C 14,4 C 6,1 C 98 % 1018,9 hPa 0,0 l/m 2 min 0 min 279 W/m 6,4 km/h (2 Bft) 94,59 %
03.10.2019 10:24 10,5 C 15,0 C 6,1 C 98 % 1018,9 hPa 0,0 l/m 2 min 0 min 413 W/m 16,1 km/h (3 Bft) 97,87 %
03.10.2019 10:26 10,6 C 14,4 C 6,1 C 98 % 1018,9 hPa 0,0 l/m 2 min 0 min 413 W/m 12,9 km/h (3 Bft) 96,30 %
03.10.2019 10:28 10,7 C 15,0 C 6,1 C 98 % 1018,8 hPa 0,0 l/m 2 min 0 min 413 W/m 12,9 km/h (3 Bft) 97,96 %
03.10.2019 10:30 10,8 C 13,3 C 6,1 C 98 % 1018,9 hPa 0,0 l/m 0 min 0 min 187 W/m 12,9 km/h (3 Bft) 94,59 %
03.10.2019 10:32 10,8 C 13,9 C 6,1 C 98 % 1018,9 hPa 0,0 l/m 0 min 0 min 151 W/m 3,2 km/h (1 Bft) 95,74 %
03.10.2019 10:34 10,8 C 14,4 C 6,1 C 98 % 1018,9 hPa 0,0 l/m 2 min 0 min 328 W/m 9,7 km/h (2 Bft) 96,30 %
03.10.2019 10:36 10,9 C 15,6 C 6,1 C 97 % 1019,0 hPa 0,0 l/m 2 min 0 min 481 W/m 9,7 km/h (2 Bft) 97,87 %
03.10.2019 10:38 11,1 C 16,7 C 6,1 C 97 % 1018,9 hPa 0,0 l/m 2 min 0 min 446 W/m 12,9 km/h (3 Bft) 93,88 %
03.10.2019 10:40 11,2 C 14,4 C 6,1 C 97 % 1019,0 hPa 0,0 l/m 2 min 0 min 405 W/m 19,3 km/h (3 Bft) 91,89 %
03.10.2019 10:42 11,2 C 13,9 C 6,1 C 97 % 1019,0 hPa 0,0 l/m 0 min 0 min 140 W/m 12,9 km/h (3 Bft) 95,74 %
03.10.2019 10:44 11,3 C 13,9 C 6,1 C 97 % 1018,9 hPa 0,0 l/m 0 min 0 min 146 W/m 9,7 km/h (2 Bft) 98,15 %
03.10.2019 10:46 11,3 C 13,3 C 6,1 C 97 % 1019,0 hPa 0,0 l/m 2 min 0 min 230 W/m 16,1 km/h (3 Bft) 96,00 %
03.10.2019 10:48 11,3 C 12,8 C 6,1 C 97 % 1019,0 hPa 0,0 l/m 0 min 0 min 192 W/m 9,7 km/h (2 Bft) 100,00 %
03.10.2019 10:50 11,3 C 13,9 C 6,1 C 96 % 1018,9 hPa 0,0 l/m 0 min 0 min 200 W/m 12,9 km/h (3 Bft) 95,65 %
03.10.2019 10:52 11,4 C 14,4 C 6,1 C 96 % 1018,9 hPa 0,0 l/m 2 min 0 min 468 W/m 16,1 km/h (3 Bft) 96,30 %
03.10.2019 10:54 11,4 C 13,9 C 6,1 C 96 % 1018,9 hPa 0,0 l/m 2 min 0 min 292 W/m 12,9 km/h (3 Bft) 98,00 %
03.10.2019 10:56 11,4 C 15,0 C 6,1 C 96 % 1018,9 hPa 0,0 l/m 2 min 0 min 234 W/m 9,7 km/h (2 Bft) 94,59 %
03.10.2019 10:58 11,6 C 16,1 C 6,1 C 96 % 1018,9 hPa 0,0 l/m 2 min 0 min 552 W/m 12,9 km/h (3 Bft) 97,87 %
03.10.2019 11:00 11,7 C 16,1 C 6,1 C 96 % 1019,0 hPa 0,0 l/m 2 min 0 min 578 W/m 6,4 km/h (2 Bft) 96,30 %
03.10.2019 11:02 11,8 C 15,0 C 6,1 C 95 % 1018,9 hPa 0,0 l/m 0 min 0 min 190 W/m 16,1 km/h (3 Bft) 97,96 %
03.10.2019 11:04 11,8 C 13,9 C 6,1 C 95 % 1018,9 hPa 0,0 l/m 2 min 0 min 239 W/m 16,1 km/h (3 Bft) 97,30 %
03.10.2019 11:06 11,8 C 13,9 C 6,1 C 95 % 1018,9 hPa 0,0 l/m 2 min 0 min 252 W/m 9,7 km/h (2 Bft) 97,87 %
03.10.2019 11:08 11,9 C 15,0 C 6,1 C 95 % 1018,9 hPa 0,0 l/m 2 min 0 min 391 W/m 16,1 km/h (3 Bft) 98,15 %
03.10.2019 11:10 11,9 C 14,4 C 6,1 C 94 % 1018,9 hPa 0,0 l/m 2 min 0 min 482 W/m 9,7 km/h (2 Bft) 98,00 %
03.10.2019 11:12 12,0 C 14,4 C 6,1 C 94 % 1018,9 hPa 0,0 l/m 2 min 0 min 318 W/m 6,4 km/h (2 Bft) 97,30 %
03.10.2019 11:14 12,1 C 14,4 C 6,1 C 94 % 1018,9 hPa 0,0 l/m 2 min 0 min 268 W/m 16,1 km/h (3 Bft) 97,83 %
03.10.2019 11:16 12,1 C 13,3 C 6,1 C 94 % 1018,9 hPa 0,0 l/m 0 min 0 min 187 W/m 12,9 km/h (3 Bft) 98,15 %
03.10.2019 11:18 12,1 C 13,3 C 6,1 C 93 % 1019,0 hPa 0,0 l/m 0 min 0 min 198 W/m 9,7 km/h (2 Bft) 96,00 %
03.10.2019 11:20 12,1 C 12,8 C 6,1 C 93 % 1019,0 hPa 0,0 l/m 0 min 0 min 184 W/m 12,9 km/h (3 Bft) 100,00 %
03.10.2019 11:22 12,1 C 12,8 C 6,1 C 93 % 1019,0 hPa 0,0 l/m 0 min 0 min 206 W/m 16,1 km/h (3 Bft) 97,87 %
03.10.2019 11:24 12,1 C 12,8 C 6,1 C 92 % 1019,0 hPa 0,0 l/m 0 min 0 min 241 W/m 16,1 km/h (3 Bft) 96,30 %
03.10.2019 11:26 12,1 C 12,8 C 6,1 C 92 % 1019,0 hPa 0,0 l/m 0 min 0 min 206 W/m 9,7 km/h (2 Bft) 97,96 %
03.10.2019 11:28 12,2 C 13,3 C 6,1 C 92 % 1019,0 hPa 0,0 l/m 0 min 0 min 204 W/m 6,4 km/h (2 Bft) 97,30 %
03.10.2019 11:30 12,2 C 13,3 C 6,1 C 92 % 1019,0 hPa 0,0 l/m 0 min 0 min 241 W/m 9,7 km/h (2 Bft) 97,87 %
03.10.2019 11:32 12,2 C 13,9 C 6,1 C 92 % 1018,9 hPa 0,0 l/m 2 min 0 min 263 W/m 12,9 km/h (3 Bft) 98,15 %
03.10.2019 11:34 12,2 C 14,4 C 6,1 C 92 % 1019,0 hPa 0,0 l/m 2 min 0 min 383 W/m 12,9 km/h (3 Bft) 98,00 %
03.10.2019 11:36 12,2 C 14,4 C 6,1 C 92 % 1019,0 hPa 0,0 l/m 2 min 0 min 413 W/m 6,4 km/h (2 Bft) 97,22 %
03.10.2019 11:38 12,3 C 13,9 C 6,1 C 91 % 1019,0 hPa 0,0 l/m 0 min 0 min 192 W/m 16,1 km/h (3 Bft) 97,87 %
03.10.2019 11:40 12,3 C 13,3 C 6,1 C 92 % 1019,0 hPa 0,0 l/m 0 min 0 min 187 W/m 16,1 km/h (3 Bft) 98,15 %
03.10.2019 11:42 12,3 C 12,8 C 6,1 C 91 % 1019,0 hPa 0,0 l/m 0 min 0 min 176 W/m 12,9 km/h (3 Bft) 96,00 %
03.10.2019 11:44 12,3 C 12,8 C 6,1 C 91 % 1019,0 hPa 0,0 l/m 0 min 0 min 148 W/m 12,9 km/h (3 Bft) 97,87 %
03.10.2019 11:46 12,3 C 12,8 C 6,1 C 91 % 1019,0 hPa 0,0 l/m 0 min 0 min 167 W/m 12,9 km/h (3 Bft) 97,30 %
03.10.2019 11:48 12,3 C 12,8 C 6,1 C 91 % 1019,0 hPa 0,0 l/m 0 min 0 min 196 W/m 12,9 km/h (3 Bft) 97,83 %
03.10.2019 11:50 12,3 C 12,8 C 6,1 C 91 % 1018,9 hPa 0,0 l/m 0 min 0 min 218 W/m 16,1 km/h (3 Bft) 98,15 %
03.10.2019 11:52 12,3 C 13,3 C 6,1 C 90 % 1018,9 hPa 0,0 l/m 0 min 0 min 207 W/m 12,9 km/h (3 Bft) 94,00 %
03.10.2019 11:54 12,3 C 13,3 C 6,1 C 90 % 1018,9 hPa 0,0 l/m 0 min 0 min 237 W/m 6,4 km/h (2 Bft) 97,30 %
03.10.2019 11:56 12,4 C 13,3 C 6,1 C 90 % 1018,9 hPa 0,0 l/m 0 min 0 min 243 W/m 6,4 km/h (2 Bft) 93,62 %
03.10.2019 11:58 12,4 C 13,9 C 6,1 C 90 % 1018,9 hPa 0,0 l/m 0 min 0 min 212 W/m 6,4 km/h (2 Bft) 94,44 %
03.10.2019 12:00 12,4 C 13,9 C 6,1 C 90 % 1018,9 hPa 0,0 l/m 0 min 0 min 204 W/m 12,9 km/h (3 Bft) 95,74 %
03.10.2019 12:02 12,4 C 13,3 C 6,1 C 90 % 1019,0 hPa 0,0 l/m 0 min 0 min 192 W/m 6,4 km/h (2 Bft) 95,92 %
03.10.2019 12:04 12,5 C 13,3 C 6,1 C 91 % 1018,9 hPa 0,0 l/m 0 min 0 min 171 W/m 9,7 km/h (2 Bft) 97,30 %
03.10.2019 12:08 12,6 C 13,3 C 6,1 C 91 % 1018,9 hPa 0,0 l/m 0 min 0 min 131 W/m 9,7 km/h (2 Bft) 95,74 %
03.10.2019 12:10 12,6 C 13,3 C 6,1 C 90 % 1018,8 hPa 0,0 l/m 0 min 0 min 159 W/m 6,4 km/h (2 Bft) 94,44 %
03.10.2019 12:12 12,6 C 13,3 C 6,1 C 90 % 1018,9 hPa 0,0 l/m 0 min 0 min 181 W/m 9,7 km/h (2 Bft) 91,84 %
03.10.2019 12:14 12,6 C 13,3 C 6,1 C 90 % 1018,9 hPa 0,0 l/m 0 min 0 min 211 W/m 6,4 km/h (2 Bft) 97,30 %
03.10.2019 12:16 12,6 C 13,9 C 6,1 C 90 % 1018,8 hPa 0,0 l/m 0 min 0 min 205 W/m 6,4 km/h (2 Bft) 97,87 %
03.10.2019 12:18 12,7 C 13,9 C 6,1 C 90 % 1018,9 hPa 0,0 l/m 0 min 0 min 193 W/m 6,4 km/h (2 Bft) 96,30 %
03.10.2019 12:20 12,7 C 13,3 C 6,1 C 90 % 1018,8 hPa 0,0 l/m 0 min 0 min 158 W/m 9,7 km/h (2 Bft) 96,00 %
03.10.2019 12:22 12,7 C 13,3 C 6,1 C 90 % 1018,8 hPa 0,0 l/m 0 min 0 min 172 W/m 3,2 km/h (1 Bft) 95,74 %
03.10.2019 12:24 12,7 C 13,3 C 6,1 C 90 % 1018,8 hPa 0,0 l/m 0 min 0 min 160 W/m 6,4 km/h (2 Bft) 97,22 %
03.10.2019 12:26 12,7 C 13,9 C 6,1 C 90 % 1018,8 hPa 0,0 l/m 0 min 0 min 178 W/m 6,4 km/h (2 Bft) 97,87 %
03.10.2019 12:28 12,8 C 13,3 C 6,1 C 90 % 1018,7 hPa 0,0 l/m 0 min 0 min 154 W/m 9,7 km/h (2 Bft) 98,15 %
03.10.2019 12:30 12,8 C 13,3 C 6,1 C 90 % 1018,8 hPa 0,0 l/m 0 min 0 min 185 W/m 12,9 km/h (3 Bft) 96,00 %
03.10.2019 12:32 12,8 C 13,9 C 6,1 C 90 % 1018,7 hPa 0,0 l/m 0 min 0 min 191 W/m 6,4 km/h (2 Bft) 100,00 %
03.10.2019 12:34 12,8 C 13,3 C 6,1 C 90 % 1018,7 hPa 0,0 l/m 0 min 0 min 180 W/m 12,9 km/h (3 Bft) 100,00 %
03.10.2019 12:36 12,8 C 13,9 C 6,1 C 90 % 1018,8 hPa 0,0 l/m 0 min 0 min 228 W/m 16,1 km/h (3 Bft) 97,87 %
03.10.2019 12:38 12,8 C 13,9 C 6,1 C 90 % 1018,7 hPa 0,0 l/m 0 min 0 min 249 W/m 6,4 km/h (2 Bft) 98,15 %
03.10.2019 12:40 12,8 C 14,4 C 6,1 C 90 % 1018,7 hPa 0,0 l/m 0 min 0 min 264 W/m 12,9 km/h (3 Bft) 96,00 %
03.10.2019 12:42 12,9 C 14,4 C 6,1 C 89 % 1018,7 hPa 0,0 l/m 2 min 0 min 301 W/m 6,4 km/h (2 Bft) 97,30 %
03.10.2019 12:44 12,9 C 15,0 C 6,1 C 89 % 1018,7 hPa 0,0 l/m 2 min 0 min 319 W/m 12,9 km/h (3 Bft) 97,87 %
03.10.2019 12:46 12,9 C 15,0 C 6,1 C 89 % 1018,7 hPa 0,0 l/m 2 min 0 min 303 W/m 6,4 km/h (2 Bft) 97,83 %
03.10.2019 12:48 13,0 C 15,0 C 6,1 C 89 % 1018,6 hPa 0,0 l/m 2 min 0 min 299 W/m 6,4 km/h (2 Bft) 97,87 %
03.10.2019 12:50 13,1 C 14,4 C 6,1 C 89 % 1018,6 hPa 0,0 l/m 2 min 0 min 288 W/m 16,1 km/h (3 Bft) 97,87 %
03.10.2019 12:52 13,1 C 14,4 C 6,1 C 89 % 1018,6 hPa 0,0 l/m 0 min 0 min 268 W/m 12,9 km/h (3 Bft) 97,87 %
03.10.2019 12:54 13,1 C 15,0 C 6,1 C 89 % 1018,6 hPa 0,0 l/m 0 min 0 min 273 W/m 6,4 km/h (2 Bft) 100,00 %
03.10.2019 12:56 13,1 C 14,4 C 6,1 C 88 % 1018,6 hPa 0,0 l/m 0 min 0 min 229 W/m 6,4 km/h (2 Bft) 97,87 %
03.10.2019 12:58 13,2 C 14,4 C 6,1 C 88 % 1018,5 hPa 0,0 l/m 0 min 0 min 188 W/m 12,9 km/h (3 Bft) 97,83 %
03.10.2019 13:00 13,2 C 14,4 C 6,1 C 88 % 1018,5 hPa 0,0 l/m 0 min 0 min 174 W/m 3,2 km/h (1 Bft) 95,74 %
03.10.2019 13:02 13,2 C 14,4 C 6,1 C 88 % 1018,5 hPa 0,0 l/m 0 min 0 min 158 W/m 9,7 km/h (2 Bft) 95,74 %
03.10.2019 13:04 13,3 C 13,9 C 6,1 C 88 % 1018,5 hPa 0,0 l/m 0 min 0 min 199 W/m 9,7 km/h (2 Bft) 97,87 %
03.10.2019 13:06 13,3 C 13,9 C 6,1 C 88 % 1018,5 hPa 0,0 l/m 0 min 0 min 218 W/m 12,9 km/h (3 Bft) 97,87 %
03.10.2019 13:08 13,3 C 13,9 C 6,1 C 87 % 1018,5 hPa 0,0 l/m 0 min 0 min 139 W/m 6,4 km/h (2 Bft) 97,87 %
03.10.2019 13:10 13,3 C 13,9 C 6,1 C 88 % 1018,5 hPa 0,0 l/m 0 min 0 min 95 W/m 6,4 km/h (2 Bft) 97,83 %
03.10.2019 13:12 13,3 C 13,3 C 6,1 C 88 % 1018,5 hPa 0,0 l/m 0 min 0 min 80 W/m 12,9 km/h (3 Bft) 97,87 %
03.10.2019 13:14 13,3 C 13,3 C 6,1 C 88 % 1018,5 hPa 0,0 l/m 0 min 0 min 75 W/m 6,4 km/h (2 Bft) 97,87 %
03.10.2019 13:16 13,3 C 12,8 C 6,1 C 88 % 1018,5 hPa 0,0 l/m 0 min 0 min 67 W/m 6,4 km/h (2 Bft) 97,87 %
03.10.2019 13:18 13,3 C 12,2 C 6,1 C 87 % 1018,4 hPa 0,0 l/m 0 min 2 min 55 W/m 6,4 km/h (2 Bft) 97,87 %
03.10.2019 13:20 13,3 C 12,2 C 6,1 C 87 % 1018,5 hPa 0,2 l/m 0 min 0 min 49 W/m 6,4 km/h (2 Bft) 100,00 %
03.10.2019 13:22 13,3 C 11,7 C 6,1 C 88 % 1018,5 hPa 0,0 l/m 0 min 2 min 50 W/m 12,9 km/h (3 Bft) 100,00 %
03.10.2019 13:26 13,2 C 11,1 C 5,6 C 88 % 1018,4 hPa 0,0 l/m 0 min 4 min 68 W/m 6,4 km/h (2 Bft) 97,96 %
03.10.2019 13:28 13,2 C 11,1 C 5,6 C 88 % 1018,4 hPa 0,0 l/m 0 min 2 min 91 W/m 6,4 km/h (2 Bft) 100,00 %
03.10.2019 13:30 13,2 C 11,7 C 5,6 C 88 % 1018,4 hPa 0,0 l/m 0 min 0 min 135 W/m 9,7 km/h (2 Bft) 100,00 %
03.10.2019 13:32 13,2 C 11,7 C 5,6 C 88 % 1018,5 hPa 0,0 l/m 0 min 0 min 193 W/m 12,9 km/h (3 Bft) 100,00 %
03.10.2019 13:34 13,2 C 12,8 C 5,6 C 89 % 1018,4 hPa 0,0 l/m 0 min 0 min 250 W/m 6,4 km/h (2 Bft) 100,00 %
03.10.2019 13:36 13,2 C 12,8 C 5,6 C 89 % 1018,4 hPa 0,0 l/m 0 min 0 min 278 W/m 12,9 km/h (3 Bft) 95,65 %
03.10.2019 13:38 13,2 C 12,8 C 5,6 C 89 % 1018,3 hPa 0,0 l/m 0 min 0 min 266 W/m 9,7 km/h (2 Bft) 100,00 %
03.10.2019 13:40 13,2 C 13,3 C 5,6 C 89 % 1018,3 hPa 0,0 l/m 0 min 0 min 237 W/m 6,4 km/h (2 Bft) 100,00 %
03.10.2019 13:42 13,2 C 12,8 C 5,6 C 90 % 1018,3 hPa 0,0 l/m 0 min 0 min 202 W/m 6,4 km/h (2 Bft) 100,00 %
03.10.2019 13:48 13,2 C 12,2 C 5,6 C 90 % 1018,3 hPa 0,0 l/m 0 min 0 min 108 W/m 6,4 km/h (2 Bft) 100,00 %
03.10.2019 13:50 13,2 C 12,2 C 5,6 C 90 % 1018,3 hPa 0,0 l/m 0 min 0 min 118 W/m 12,9 km/h (3 Bft) 100,00 %
03.10.2019 13:52 13,2 C 12,2 C 5,6 C 90 % 1018,3 hPa 0,0 l/m 0 min 0 min 146 W/m 12,9 km/h (3 Bft) 100,00 %
03.10.2019 13:54 13,2 C 12,2 C 5,6 C 90 % 1018,3 hPa 0,0 l/m 0 min 0 min 179 W/m 6,4 km/h (2 Bft) 100,00 %
03.10.2019 13:56 13,2 C 12,8 C 5,6 C 90 % 1018,3 hPa 0,0 l/m 0 min 0 min 172 W/m 6,4 km/h (2 Bft) 100,00 %
03.10.2019 13:58 13,2 C 12,2 C 5,6 C 90 % 1018,3 hPa 0,0 l/m 0 min 0 min 147 W/m 19,3 km/h (3 Bft) 100,00 %
03.10.2019 14:00 13,2 C 12,8 C 5,6 C 90 % 1018,3 hPa 0,0 l/m 0 min 0 min 142 W/m 6,4 km/h (2 Bft) 97,92 %
03.10.2019 14:02 13,2 C 12,8 C 5,6 C 90 % 1018,2 hPa 0,0 l/m 0 min 0 min 158 W/m 6,4 km/h (2 Bft) 100,00 %
03.10.2019 14:04 13,2 C 12,8 C 5,6 C 90 % 1018,3 hPa 0,0 l/m 0 min 0 min 182 W/m 6,4 km/h (2 Bft) 100,00 %
03.10.2019 14:06 13,2 C 12,8 C 5,6 C 90 % 1018,2 hPa 0,0 l/m 0 min 0 min 197 W/m 9,7 km/h (2 Bft) 100,00 %
03.10.2019 14:08 13,2 C 13,3 C 5,6 C 90 % 1018,2 hPa 0,0 l/m 0 min 0 min 206 W/m 6,4 km/h (2 Bft) 100,00 %
03.10.2019 14:10 13,2 C 13,9 C 5,6 C 89 % 1018,1 hPa 0,0 l/m 0 min 0 min 222 W/m 6,4 km/h (2 Bft) 100,00 %
03.10.2019 14:12 13,2 C 13,9 C 5,6 C 89 % 1018,1 hPa 0,0 l/m 0 min 0 min 206 W/m 12,9 km/h (3 Bft) 100,00 %
03.10.2019 14:14 13,2 C 13,9 C 5,6 C 89 % 1018,1 hPa 0,0 l/m 0 min 0 min 181 W/m 9,7 km/h (2 Bft) 95,74 %
03.10.2019 14:16 13,2 C 13,9 C 5,6 C 89 % 1018,1 hPa 0,0 l/m 0 min 0 min 171 W/m 12,9 km/h (3 Bft) 97,56 %
03.10.2019 14:18 13,2 C 13,3 C 5,6 C 88 % 1018,0 hPa 0,0 l/m 0 min 0 min 139 W/m 9,7 km/h (2 Bft) 97,87 %
03.10.2019 14:20 13,2 C 13,3 C 5,6 C 88 % 1018,0 hPa 0,0 l/m 0 min 0 min 96 W/m 6,4 km/h (2 Bft) 97,67 %
03.10.2019 14:26 13,2 C 12,8 C 6,1 C 88 % 1017,9 hPa 0,0 l/m 0 min 0 min 125 W/m 6,4 km/h (2 Bft) 97,74 %
03.10.2019 14:30 13,2 C 13,9 C 0,0 C 87 % 1017,9 hPa 0,0 l/m 0 min 0 min 207 W/m 9,7 km/h (2 Bft) 98,10 %
03.10.2019 14:32 13,2 C 14,4 C 0,0 C 87 % 1017,8 hPa 0,0 l/m 0 min 0 min 215 W/m 12,9 km/h (3 Bft) 95,74 %
03.10.2019 14:36 13,2 C 15,0 C 6,1 C 87 % 1017,9 hPa 0,0 l/m 4 min 0 min 269 W/m 12,9 km/h (3 Bft) 97,83 %
03.10.2019 14:40 13,2 C 16,7 C 0,0 C 87 % 1017,8 hPa 0,0 l/m 4 min 0 min 361 W/m 19,3 km/h (3 Bft) 100,00 %
03.10.2019 14:46 13,4 C 17,8 C 0,0 C 88 % 1017,9 hPa 0,0 l/m 5 min 0 min 420 W/m 6,4 km/h (2 Bft) 97,92 %
03.10.2019 14:48 13,6 C 18,9 C 0,0 C 88 % 1017,8 hPa 0,0 l/m 2 min 0 min 519 W/m 9,7 km/h (2 Bft) 96,15 %
03.10.2019 14:50 13,7 C 20,0 C 0,0 C 88 % 1017,8 hPa 0,0 l/m 2 min 0 min 587 W/m 9,7 km/h (2 Bft) 97,87 %
03.10.2019 14:55 14,0 C 17,2 C 0,0 C 87 % 1017,6 hPa 0,0 l/m 5 min 0 min 654 W/m 19,3 km/h (3 Bft) 100,00 %
03.10.2019 14:56 14,0 C 17,2 C 0,0 C 87 % 1017,6 hPa 0,0 l/m 1 min 0 min 697 W/m 9,7 km/h (2 Bft) 100,00 %
03.10.2019 14:58 14,2 C 17,8 C 0,0 C 86 % 1017,6 hPa 0,0 l/m 2 min 0 min 401 W/m 22,5 km/h (4 Bft) 100,00 %
03.10.2019 15:06 14,4 C 19,4 C 16,1 C 84 % 1017,5 hPa 0,0 l/m 5 min 0 min 525 W/m 16,1 km/h (3 Bft) 100,00 %
03.10.2019 15:08 14,5 C 18,9 C 16,1 C 84 % 1017,5 hPa 0,0 l/m 2 min 0 min 489 W/m 12,9 km/h (3 Bft) 100,00 %
03.10.2019 15:10 14,6 C 18,9 C 16,1 C 84 % 1017,4 hPa 0,0 l/m 2 min 0 min 582 W/m 12,9 km/h (3 Bft) 97,87 %
03.10.2019 15:12 14,7 C 18,3 C 16,1 C 83 % 1017,5 hPa 0,0 l/m 2 min 0 min 586 W/m 16,1 km/h (3 Bft) 100,00 %
03.10.2019 15:14 14,7 C 17,8 C 16,1 C 82 % 1017,4 hPa 0,0 l/m 2 min 0 min 618 W/m 9,7 km/h (2 Bft) 100,00 %
03.10.2019 15:16 14,7 C 17,8 C 16,1 C 82 % 1017,4 hPa 0,0 l/m 2 min 0 min 271 W/m 12,9 km/h (3 Bft) 100,00 %
03.10.2019 15:18 14,8 C 17,8 C 16,1 C 81 % 1017,4 hPa 0,0 l/m 2 min 0 min 298 W/m 9,7 km/h (2 Bft) 93,48 %
03.10.2019 15:20 14,8 C 16,1 C 16,1 C 82 % 1017,5 hPa 0,0 l/m 0 min 0 min 239 W/m 16,1 km/h (3 Bft) 95,74 %
03.10.2019 15:22 14,8 C 16,1 C 16,1 C 81 % 1017,5 hPa 0,0 l/m 0 min 0 min 197 W/m 6,4 km/h (2 Bft) 95,74 %
03.10.2019 15:24 14,8 C 15,6 C 16,1 C 82 % 1017,5 hPa 0,0 l/m 0 min 0 min 202 W/m 12,9 km/h (3 Bft) 95,74 %
03.10.2019 15:25 14,8 C 15,6 C 16,1 C 81 % 1017,5 hPa 0,0 l/m 0 min 0 min 203 W/m 12,9 km/h (3 Bft) 86,84 %
03.10.2019 15:30 14,8 C 15,0 C 16,1 C 80 % 1017,4 hPa 0,0 l/m 0 min 0 min 218 W/m 22,5 km/h (4 Bft) 91,23 %
03.10.2019 15:35 14,7 C 15,0 C 16,1 C 79 % 1017,4 hPa 0,0 l/m 0 min 0 min 210 W/m 22,5 km/h (4 Bft) 98,25 %
03.10.2019 15:40 14,6 C 14,4 C 16,1 C 80 % 1017,5 hPa 0,0 l/m 0 min 0 min 185 W/m 12,9 km/h (3 Bft) 96,49 %
03.10.2019 15:45 14,7 C 14,4 C 16,1 C 81 % 1017,4 hPa 0,0 l/m 0 min 0 min 124 W/m 9,7 km/h (2 Bft) 80,70 %
03.10.2019 15:52 14,6 C 13,9 C 16,1 C 80 % 1017,3 hPa 0,0 l/m 0 min 0 min 55 W/m 16,1 km/h (3 Bft) 95,92 %
03.10.2019 15:54 14,4 C 13,3 C 16,1 C 80 % 1017,3 hPa 0,0 l/m 0 min 0 min 47 W/m 12,9 km/h (3 Bft) 95,74 %
03.10.2019 15:56 14,3 C 13,3 C 16,1 C 80 % 1017,4 hPa 0,0 l/m 0 min 0 min 45 W/m 19,3 km/h (3 Bft) 93,48 %
03.10.2019 15:58 14,3 C 13,3 C 16,1 C 81 % 1017,3 hPa 0,0 l/m 0 min 0 min 53 W/m 12,9 km/h (3 Bft) 95,74 %
03.10.2019 16:00 14,3 C 13,3 C 16,1 C 82 % 1017,3 hPa 0,0 l/m 0 min 0 min 65 W/m 16,1 km/h (3 Bft) 95,74 %
03.10.2019 16:06 14,9 C 13,3 C 5,6 C 78 % 1017,4 hPa 0,0 l/m 0 min 0 min 79 W/m 9,7 km/h (2 Bft) 96,88 %
03.10.2019 16:10 14,8 C 13,3 C 0,0 C 79 % 1017,4 hPa 0,0 l/m 0 min 0 min 96 W/m 9,7 km/h (2 Bft) 97,37 %
03.10.2019 16:15 13,7 C 13,9 C 5,6 C 79 % 1017,4 hPa 0,0 l/m 0 min 0 min 126 W/m 12,9 km/h (3 Bft) 98,25 %
03.10.2019 16:20 14,0 C 13,9 C 5,6 C 83 % 1017,3 hPa 0,0 l/m 0 min 0 min 158 W/m 16,1 km/h (3 Bft) 75,44 %
03.10.2019 16:25 14,0 C 14,4 C 5,6 C 82 % 1017,3 hPa 0,0 l/m 0 min 0 min 175 W/m 12,9 km/h (3 Bft) 100,00 %
03.10.2019 16:30 14,0 C 14,4 C 5,6 C 82 % 1017,3 hPa 0,0 l/m 0 min 0 min 159 W/m 16,1 km/h (3 Bft) 100,00 %
03.10.2019 16:35 14,0 C 13,9 C 5,6 C 82 % 1017,4 hPa 0,0 l/m 0 min 0 min 105 W/m 12,9 km/h (3 Bft) 100,00 %
03.10.2019 16:40 14,0 C 13,9 C 5,6 C 83 % 1017,4 hPa 0,0 l/m 0 min 0 min 131 W/m 16,1 km/h (3 Bft) 100,00 %
03.10.2019 16:45 13,9 C 14,4 C 5,6 C 85 % 1017,3 hPa 0,0 l/m 5 min 0 min 207 W/m 9,7 km/h (2 Bft) 100,00 %
03.10.2019 16:50 13,9 C 13,9 C 5,6 C 85 % 1017,4 hPa 0,0 l/m 0 min 0 min 116 W/m 16,1 km/h (3 Bft) 100,00 %
03.10.2019 16:55 13,8 C 13,3 C 5,6 C 85 % 1017,3 hPa 0,0 l/m 0 min 0 min 74 W/m 6,4 km/h (2 Bft) 100,00 %
03.10.2019 17:00 13,8 C 12,8 C 5,6 C 85 % 1017,3 hPa 0,0 l/m 0 min 0 min 74 W/m 9,7 km/h (2 Bft) 99,12 %
03.10.2019 17:05 13,7 C 12,8 C 5,6 C 84 % 1017,4 hPa 0,0 l/m 0 min 0 min 84 W/m 9,7 km/h (2 Bft) 99,12 %
03.10.2019 17:10 13,6 C 12,8 C 5,6 C 84 % 1017,4 hPa 0,0 l/m 0 min 0 min 71 W/m 19,3 km/h (3 Bft) 100,00 %
03.10.2019 17:15 13,4 C 12,8 C 5,6 C 84 % 1017,4 hPa 0,0 l/m 0 min 0 min 64 W/m 12,9 km/h (3 Bft) 100,00 %
03.10.2019 17:20 13,3 C 12,2 C 5,6 C 84 % 1017,4 hPa 0,0 l/m 0 min 0 min 43 W/m 12,9 km/h (3 Bft) 100,00 %
03.10.2019 17:25 13,2 C 12,2 C 5,6 C 84 % 1017,4 hPa 0,0 l/m 0 min 0 min 36 W/m 16,1 km/h (3 Bft) 100,00 %
03.10.2019 17:28 13,2 C 12,2 C 5,6 C 84 % 1017,3 hPa 0,0 l/m 0 min 0 min 86 W/m 6,4 km/h (2 Bft) 97,60 %
03.10.2019 17:30 13,1 C 12,2 C 5,6 C 84 % 1017,4 hPa 0,0 l/m 0 min 0 min 42 W/m 22,5 km/h (4 Bft) 100,00 %
03.10.2019 17:32 13,1 C 12,2 C 5,6 C 84 % 1017,3 hPa 0,0 l/m 0 min 0 min 50 W/m 6,4 km/h (2 Bft) 100,00 %
03.10.2019 17:34 13,1 C 12,2 C 5,6 C 84 % 1017,3 hPa 0,0 l/m 0 min 0 min 61 W/m 6,4 km/h (2 Bft) 100,00 %
03.10.2019 17:36 13,1 C 12,2 C 5,6 C 84 % 1017,3 hPa 0,0 l/m 0 min 0 min 65 W/m 12,9 km/h (3 Bft) 100,00 %
03.10.2019 17:38 13,0 C 12,2 C 5,6 C 85 % 1017,3 hPa 0,0 l/m 0 min 0 min 62 W/m 9,7 km/h (2 Bft) 100,00 %
03.10.2019 17:40 13,0 C 12,2 C 5,6 C 85 % 1017,3 hPa 0,0 l/m 0 min 0 min 60 W/m 12,9 km/h (3 Bft) 100,00 %
03.10.2019 17:42 12,9 C 12,2 C 5,6 C 85 % 1017,3 hPa 0,0 l/m 0 min 0 min 58 W/m 6,4 km/h (2 Bft) 100,00 %
03.10.2019 17:44 12,9 C 12,2 C 0,0 C 85 % 1017,3 hPa 0,0 l/m 0 min 0 min 54 W/m 6,4 km/h (2 Bft) 97,37 %
03.10.2019 17:46 12,9 C 12,2 C 0,0 C 85 % 1017,3 hPa 0,0 l/m 0 min 0 min 50 W/m 6,4 km/h (2 Bft) 100,00 %
03.10.2019 17:48 12,9 C 12,2 C 0,0 C 85 % 1017,3 hPa 0,0 l/m 0 min 0 min 46 W/m 6,4 km/h (2 Bft) 97,92 %
03.10.2019 17:50 12,9 C 12,2 C 0,0 C 86 % 1017,3 hPa 0,0 l/m 0 min 0 min 44 W/m 6,4 km/h (2 Bft) 100,00 %
03.10.2019 17:52 12,8 C 12,2 C 0,0 C 86 % 1017,3 hPa 0,0 l/m 0 min 0 min 41 W/m 6,4 km/h (2 Bft) 98,15 %
03.10.2019 17:54 12,8 C 11,7 C 0,0 C 86 % 1017,2 hPa 0,0 l/m 0 min 0 min 39 W/m 6,4 km/h (2 Bft) 100,00 %
03.10.2019 17:56 12,8 C 11,7 C 0,0 C 86 % 1017,3 hPa 0,0 l/m 0 min 0 min 37 W/m 3,2 km/h (1 Bft) 100,00 %
03.10.2019 17:58 12,8 C 11,7 C 0,0 C 87 % 1017,3 hPa 0,0 l/m 0 min 0 min 37 W/m 6,4 km/h (2 Bft) 100,00 %
03.10.2019 18:00 12,8 C 11,7 C 0,0 C 86 % 1017,3 hPa 0,0 l/m 0 min 0 min 35 W/m 6,4 km/h (2 Bft) 98,11 %
03.10.2019 18:02 12,8 C 11,7 C 0,0 C 87 % 1017,3 hPa 0,0 l/m 0 min 0 min 35 W/m 12,9 km/h (3 Bft) 100,00 %
03.10.2019 18:04 12,8 C 11,7 C 0,0 C 87 % 1017,3 hPa 0,0 l/m 0 min 0 min 36 W/m 12,9 km/h (3 Bft) 100,00 %
03.10.2019 18:08 12,7 C 11,7 C 0,0 C 87 % 1017,4 hPa 0,0 l/m 0 min 0 min 38 W/m 12,9 km/h (3 Bft) 75,86 %
03.10.2019 18:10 12,7 C 11,7 C 0,0 C 88 % 1017,4 hPa 0,0 l/m 0 min 0 min 40 W/m 12,9 km/h (3 Bft) 100,00 %
03.10.2019 18:12 12,7 C 11,7 C 0,0 C 88 % 1017,3 hPa 0,0 l/m 0 min 0 min 38 W/m 9,7 km/h (2 Bft) 100,00 %
03.10.2019 18:14 12,7 C 11,7 C 0,0 C 88 % 1017,4 hPa 0,0 l/m 0 min 0 min 36 W/m 9,7 km/h (2 Bft) 100,00 %
03.10.2019 18:16 12,7 C 11,7 C 0,0 C 88 % 1017,3 hPa 0,0 l/m 0 min 0 min 34 W/m 6,4 km/h (2 Bft) 97,87 %
03.10.2019 18:18 12,7 C 11,7 C 0,0 C 88 % 1017,4 hPa 0,0 l/m 0 min 0 min 32 W/m 6,4 km/h (2 Bft) 97,83 %
03.10.2019 18:20 12,6 C 11,7 C 0,0 C 88 % 1017,3 hPa 0,0 l/m 0 min 0 min 30 W/m 6,4 km/h (2 Bft) 95,74 %
03.10.2019 18:22 12,6 C 11,7 C 0,0 C 88 % 1017,4 hPa 0,0 l/m 0 min 0 min 27 W/m 6,4 km/h (2 Bft) 97,87 %
03.10.2019 18:24 12,6 C 11,7 C 0,0 C 88 % 1017,4 hPa 0,0 l/m 0 min 0 min 24 W/m 6,4 km/h (2 Bft) 93,62 %
03.10.2019 18:26 12,6 C 11,7 C 0,0 C 88 % 1017,4 hPa 0,0 l/m 0 min 0 min 22 W/m 6,4 km/h (2 Bft) 93,62 %
03.10.2019 18:28 12,6 C 11,7 C 0,0 C 88 % 1017,4 hPa 0,0 l/m 0 min 0 min 20 W/m 9,7 km/h (2 Bft) 97,83 %
03.10.2019 18:30 12,6 C 11,7 C 0,0 C 88 % 1017,4 hPa 0,0 l/m 0 min 0 min 18 W/m 9,7 km/h (2 Bft) 93,62 %
03.10.2019 18:32 12,5 C 11,7 C 0,0 C 88 % 1017,5 hPa 0,0 l/m 0 min 0 min 17 W/m 6,4 km/h (2 Bft) 97,87 %
03.10.2019 18:34 12,5 C 11,7 C 0,0 C 88 % 1017,4 hPa 0,0 l/m 0 min 0 min 16 W/m 0,0 km/h (0 Bft) 95,74 %
03.10.2019 18:36 12,5 C 11,7 C 0,0 C 88 % 1017,5 hPa 0,0 l/m 0 min 0 min 13 W/m 9,7 km/h (2 Bft) 97,87 %
03.10.2019 18:38 12,5 C 11,7 C 0,0 C 88 % 1017,4 hPa 0,0 l/m 0 min 0 min 12 W/m 6,4 km/h (2 Bft) 97,87 %
03.10.2019 18:40 12,4 C 11,7 C 0,0 C 88 % 1017,5 hPa 0,0 l/m 0 min 0 min 11 W/m 9,7 km/h (2 Bft) 97,83 %
03.10.2019 18:42 12,4 C 11,7 C 0,0 C 88 % 1017,3 hPa 0,0 l/m 0 min 0 min 10 W/m 12,9 km/h (3 Bft) 97,87 %
03.10.2019 18:44 12,4 C 11,7 C 0,0 C 88 % 1017,4 hPa 0,0 l/m 0 min 0 min 9 W/m 6,4 km/h (2 Bft) 95,74 %
03.10.2019 18:46 12,4 C 11,7 C 0,0 C 89 % 1017,4 hPa 0,0 l/m 0 min 0 min 7 W/m 9,7 km/h (2 Bft) 95,74 %
03.10.2019 18:48 12,4 C 11,1 C 0,0 C 89 % 1017,4 hPa 0,0 l/m 0 min 0 min 7 W/m 9,7 km/h (2 Bft) 97,87 %
03.10.2019 18:50 12,3 C 11,1 C 0,0 C 89 % 1017,5 hPa 0,0 l/m 0 min 0 min 6 W/m 3,2 km/h (1 Bft) 95,74 %
03.10.2019 18:52 12,3 C 11,1 C 0,0 C 89 % 1017,4 hPa 0,0 l/m 0 min 0 min 5 W/m 6,4 km/h (2 Bft) 95,65 %
03.10.2019 18:54 12,3 C 11,1 C 0,0 C 89 % 1017,4 hPa 0,0 l/m 0 min 0 min 5 W/m 6,4 km/h (2 Bft) 95,74 %
03.10.2019 18:56 12,3 C 11,1 C 0,0 C 89 % 1017,5 hPa 0,0 l/m 0 min 0 min 5 W/m 3,2 km/h (1 Bft) 93,62 %
03.10.2019 18:58 12,3 C 11,1 C 0,0 C 89 % 1017,5 hPa 0,0 l/m 0 min 0 min 2 W/m 3,2 km/h (1 Bft) 93,62 %
03.10.2019 19:00 12,3 C 11,1 C 0,0 C 89 % 1017,5 hPa 0,0 l/m 0 min 0 min 0 W/m 6,4 km/h (2 Bft) 95,74 %
03.10.2019 19:02 12,3 C 11,1 C 0,0 C 89 % 1017,5 hPa 0,0 l/m 0 min 0 min 0 W/m 6,4 km/h (2 Bft) 93,62 %
03.10.2019 19:04 12,2 C 11,1 C 0,0 C 89 % 1017,5 hPa 0,0 l/m 0 min 0 min 0 W/m 3,2 km/h (1 Bft) 93,48 %
03.10.2019 19:06 12,2 C 11,1 C 0,0 C 89 % 1017,4 hPa 0,0 l/m 0 min 0 min 0 W/m 3,2 km/h (1 Bft) 95,74 %
03.10.2019 19:08 12,2 C 11,1 C 0,0 C 89 % 1017,5 hPa 0,0 l/m 0 min 0 min 0 W/m 3,2 km/h (1 Bft) 95,74 %
03.10.2019 19:10 12,2 C 11,1 C 0,0 C 89 % 1017,5 hPa 0,0 l/m 0 min 0 min 0 W/m 0,0 km/h (0 Bft) 95,74 %
03.10.2019 19:12 12,2 C 11,1 C 0,0 C 89 % 1017,5 hPa 0,0 l/m 0 min 0 min 0 W/m 0,0 km/h (0 Bft) 95,74 %
03.10.2019 19:14 12,1 C 11,1 C 0,0 C 89 % 1017,4 hPa 0,0 l/m 0 min 0 min 0 W/m 0,0 km/h (0 Bft) 93,62 %
03.10.2019 19:16 12,1 C 11,1 C 0,0 C 89 % 1017,4 hPa 0,0 l/m 0 min 0 min 0 W/m 0,0 km/h (0 Bft) 93,48 %
03.10.2019 19:18 12,1 C 11,1 C 0,0 C 89 % 1017,4 hPa 0,0 l/m 0 min 0 min 0 W/m 0,0 km/h (0 Bft) 95,74 %
03.10.2019 19:20 12,1 C 11,1 C 0,0 C 89 % 1017,4 hPa 0,0 l/m 0 min 0 min 0 W/m 0,0 km/h (0 Bft) 93,62 %
03.10.2019 19:22 12,0 C 11,1 C 0,0 C 89 % 1017,4 hPa 0,0 l/m 0 min 0 min 0 W/m 0,0 km/h (0 Bft) 96,59 %
03.10.2019 19:24 12,0 C 11,1 C 0,0 C 89 % 1017,4 hPa 0,0 l/m 0 min 0 min 0 W/m 0,0 km/h (0 Bft) 96,61 %
03.10.2019 19:26 12,0 C 11,1 C 0,0 C 89 % 1017,4 hPa 0,0 l/m 0 min 0 min 0 W/m 0,0 km/h (0 Bft) 92,86 %
03.10.2019 19:28 11,9 C 11,1 C 0,0 C 89 % 1017,3 hPa 0,0 l/m 0 min 0 min 0 W/m 0,0 km/h (0 Bft) 95,74 %
03.10.2019 19:30 11,9 C 11,1 C 0,0 C 89 % 1017,3 hPa 0,0 l/m 0 min 0 min 0 W/m 0,0 km/h (0 Bft) 93,88 %
03.10.2019 19:32 11,9 C 11,1 C 0,0 C 89 % 1017,3 hPa 0,0 l/m 0 min 0 min 0 W/m 0,0 km/h (0 Bft) 97,96 %
03.10.2019 19:34 11,9 C 10,6 C 0,0 C 89 % 1017,3 hPa 0,0 l/m 0 min 0 min 0 W/m 0,0 km/h (0 Bft) 97,87 %
03.10.2019 19:36 11,9 C 10,6 C 0,0 C 89 % 1017,3 hPa 0,0 l/m 0 min 0 min 0 W/m 0,0 km/h (0 Bft) 95,24 %
03.10.2019 19:38 11,9 C 10,6 C 0,0 C 89 % 1017,3 hPa 0,0 l/m 0 min 0 min 0 W/m 0,0 km/h (0 Bft) 98,00 %
03.10.2019 19:40 11,8 C 10,6 C 0,0 C 89 % 1017,3 hPa 0,0 l/m 0 min 0 min 0 W/m 0,0 km/h (0 Bft) 97,92 %
03.10.2019 19:42 11,8 C 11,1 C 0,0 C 89 % 1017,3 hPa 0,0 l/m 0 min 0 min 0 W/m 0,0 km/h (0 Bft) 97,87 %
03.10.2019 19:44 11,8 C 10,6 C 0,0 C 89 % 1017,3 hPa 0,0 l/m 0 min 0 min 0 W/m 0,0 km/h (0 Bft) 97,62 %
03.10.2019 19:46 11,8 C 10,6 C 0,0 C 89 % 1017,3 hPa 0,0 l/m 0 min 0 min 0 W/m 0,0 km/h (0 Bft) 97,87 %
03.10.2019 19:48 11,8 C 10,6 C 0,0 C 89 % 1017,3 hPa 0,0 l/m 0 min 0 min 0 W/m 0,0 km/h (0 Bft) 95,74 %
03.10.2019 19:50 11,8 C 10,6 C 0,0 C 89 % 1017,3 hPa 0,0 l/m 0 min 0 min 0 W/m 0,0 km/h (0 Bft) 95,74 %
03.10.2019 19:52 11,8 C 10,6 C 0,0 C 89 % 1017,2 hPa 0,0 l/m 0 min 0 min 0 W/m 0,0 km/h (0 Bft) 97,87 %
03.10.2019 19:54 11,8 C 10,6 C 0,0 C 89 % 1017,2 hPa 0,0 l/m 0 min 0 min 0 W/m 0,0 km/h (0 Bft) 97,83 %
03.10.2019 19:56 11,7 C 10,6 C 0,0 C 89 % 1017,2 hPa 0,0 l/m 0 min 0 min 0 W/m 0,0 km/h (0 Bft) 97,87 %
03.10.2019 19:58 11,7 C 10,6 C 0,0 C 89 % 1017,2 hPa 0,0 l/m 0 min 0 min 0 W/m 0,0 km/h (0 Bft) 97,87 %
03.10.2019 20:00 11,7 C 10,6 C 0,0 C 89 % 1017,2 hPa 0,0 l/m 0 min 0 min 0 W/m 0,0 km/h (0 Bft) 97,87 %
03.10.2019 20:02 11,7 C 10,6 C 0,0 C 89 % 1017,2 hPa 0,0 l/m 0 min 0 min 0 W/m 6,4 km/h (2 Bft) 95,74 %
03.10.2019 20:04 11,7 C 10,6 C 0,0 C 89 % 1017,2 hPa 0,0 l/m 0 min 0 min 0 W/m 6,4 km/h (2 Bft) 100,00 %
03.10.2019 20:06 11,7 C 10,6 C 0,0 C 89 % 1017,2 hPa 0,0 l/m 0 min 0 min 0 W/m 3,2 km/h (1 Bft) 100,00 %
03.10.2019 20:08 11,7 C 10,6 C 0,0 C 89 % 1017,2 hPa 0,0 l/m 0 min 0 min 0 W/m 3,2 km/h (1 Bft) 97,87 %
03.10.2019 20:10 11,7 C 10,6 C 0,0 C 89 % 1017,2 hPa 0,0 l/m 0 min 0 min 0 W/m 3,2 km/h (1 Bft) 100,00 %
03.10.2019 20:12 11,7 C 10,6 C 0,0 C 89 % 1017,2 hPa 0,0 l/m 0 min 0 min 0 W/m 0,0 km/h (0 Bft) 100,00 %
03.10.2019 20:14 11,7 C 10,6 C 0,0 C 89 % 1017,3 hPa 0,0 l/m 0 min 0 min 0 W/m 3,2 km/h (1 Bft) 100,00 %
03.10.2019 20:16 11,7 C 10,6 C 0,0 C 89 % 1017,2 hPa 0,0 l/m 0 min 0 min 0 W/m 3,2 km/h (1 Bft) 100,00 %
03.10.2019 20:18 11,7 C 10,6 C 0,0 C 89 % 1017,2 hPa 0,0 l/m 0 min 0 min 0 W/m 0,0 km/h (0 Bft) 97,87 %
03.10.2019 20:20 11,7 C 10,6 C 0,0 C 89 % 1017,2 hPa 0,0 l/m 0 min 0 min 0 W/m 3,2 km/h (1 Bft) 100,00 %
03.10.2019 20:22 11,7 C 10,6 C 0,0 C 89 % 1017,2 hPa 0,0 l/m 0 min 0 min 0 W/m 3,2 km/h (1 Bft) 100,00 %
03.10.2019 20:24 11,7 C 10,6 C 0,0 C 89 % 1017,1 hPa 0,0 l/m 0 min 0 min 0 W/m 3,2 km/h (1 Bft) 97,87 %
03.10.2019 20:26 11,7 C 10,6 C 0,0 C 89 % 1017,0 hPa 0,0 l/m 0 min 0 min 0 W/m 0,0 km/h (0 Bft) 100,00 %
03.10.2019 20:28 11,7 C 10,6 C 0,0 C 89 % 1017,0 hPa 0,0 l/m 0 min 0 min 0 W/m 0,0 km/h (0 Bft) 97,83 %
03.10.2019 20:30 11,7 C 10,6 C 0,0 C 90 % 1017,1 hPa 0,0 l/m 0 min 0 min 0 W/m 3,2 km/h (1 Bft) 100,00 %
03.10.2019 20:32 11,6 C 10,6 C 0,0 C 90 % 1017,1 hPa 0,0 l/m 0 min 0 min 0 W/m 0,0 km/h (0 Bft) 100,00 %
03.10.2019 20:34 11,6 C 10,6 C 0,0 C 89 % 1017,1 hPa 0,0 l/m 0 min 0 min 0 W/m 0,0 km/h (0 Bft) 100,00 %
03.10.2019 20:36 11,6 C 10,6 C 0,0 C 89 % 1017,1 hPa 0,0 l/m 0 min 0 min 0 W/m 0,0 km/h (0 Bft) 97,96 %
03.10.2019 20:38 11,6 C 10,6 C 0,0 C 89 % 1017,1 hPa 0,0 l/m 0 min 0 min 0 W/m 3,2 km/h (1 Bft) 97,87 %
03.10.2019 20:40 11,6 C 10,6 C 0,0 C 89 % 1017,1 hPa 0,0 l/m 0 min 0 min 0 W/m 0,0 km/h (0 Bft) 100,00 %
03.10.2019 20:42 11,6 C 10,6 C 0,0 C 89 % 1017,1 hPa 0,0 l/m 0 min 0 min 0 W/m 0,0 km/h (0 Bft) 100,00 %
03.10.2019 20:44 11,6 C 10,6 C 0,0 C 90 % 1017,0 hPa 0,0 l/m 0 min 0 min 0 W/m 3,2 km/h (1 Bft) 100,00 %
03.10.2019 20:46 11,6 C 10,6 C 0,0 C 90 % 1017,0 hPa 0,0 l/m 0 min 0 min 0 W/m 3,2 km/h (1 Bft) 100,00 %
03.10.2019 20:48 11,6 C 10,6 C 0,0 C 90 % 1017,0 hPa 0,0 l/m 0 min 0 min 0 W/m 0,0 km/h (0 Bft) 97,87 %
03.10.2019 20:50 11,6 C 10,0 C 0,0 C 90 % 1017,1 hPa 0,0 l/m 0 min 0 min 0 W/m 0,0 km/h (0 Bft) 100,00 %
03.10.2019 20:52 11,6 C 10,6 C 0,0 C 90 % 1017,0 hPa 0,0 l/m 0 min 0 min 0 W/m 0,0 km/h (0 Bft) 100,00 %
03.10.2019 20:54 11,6 C 10,6 C 0,0 C 90 % 1017,0 hPa 0,0 l/m 0 min 0 min 0 W/m 3,2 km/h (1 Bft) 100,00 %
03.10.2019 20:56 11,6 C 10,6 C 0,0 C 90 % 1016,9 hPa 0,0 l/m 0 min 0 min 0 W/m 3,2 km/h (1 Bft) 97,14 %
03.10.2019 20:58 11,5 C 10,6 C 0,0 C 90 % 1016,9 hPa 0,0 l/m 0 min 0 min 0 W/m 0,0 km/h (0 Bft) 97,87 %
03.10.2019 21:00 11,5 C 10,6 C 0,0 C 90 % 1017,0 hPa 0,0 l/m 0 min 0 min 0 W/m 0,0 km/h (0 Bft) 100,00 %
03.10.2019 21:02 11,5 C 10,6 C 0,0 C 90 % 1016,9 hPa 0,0 l/m 0 min 0 min 0 W/m 0,0 km/h (0 Bft) 100,00 %
03.10.2019 21:04 11,5 C 10,6 C 0,0 C 90 % 1016,9 hPa 0,0 l/m 0 min 0 min 0 W/m 0,0 km/h (0 Bft) 97,83 %
03.10.2019 21:06 11,4 C 10,6 C 0,0 C 90 % 1016,9 hPa 0,0 l/m 0 min 0 min 0 W/m 0,0 km/h (0 Bft) 96,00 %
03.10.2019 21:08 11,4 C 10,0 C 0,0 C 90 % 1016,9 hPa 0,0 l/m 0 min 0 min 0 W/m 3,2 km/h (1 Bft) 100,00 %
03.10.2019 21:10 11,4 C 10,0 C 0,0 C 90 % 1016,8 hPa 0,0 l/m 0 min 0 min 0 W/m 0,0 km/h (0 Bft) 100,00 %
03.10.2019 21:12 11,4 C 10,0 C 0,0 C 90 % 1016,8 hPa 0,0 l/m 0 min 0 min 0 W/m 3,2 km/h (1 Bft) 95,74 %
03.10.2019 21:14 11,4 C 10,0 C 0,0 C 90 % 1016,8 hPa 0,0 l/m 0 min 0 min 0 W/m 3,2 km/h (1 Bft) 98,11 %
03.10.2019 21:16 11,4 C 10,0 C 0,0 C 90 % 1016,8 hPa 0,0 l/m 0 min 0 min 0 W/m 0,0 km/h (0 Bft) 100,00 %
03.10.2019 21:18 11,4 C 10,0 C 0,0 C 90 % 1016,8 hPa 0,0 l/m 0 min 0 min 0 W/m 3,2 km/h (1 Bft) 98,00 %
03.10.2019 21:20 11,4 C 10,0 C 0,0 C 90 % 1016,8 hPa 0,0 l/m 0 min 0 min 0 W/m 0,0 km/h (0 Bft) 94,29 %
03.10.2019 21:22 11,3 C 10,0 C 0,0 C 90 % 1016,8 hPa 0,0 l/m 0 min 0 min 0 W/m 0,0 km/h (0 Bft) 97,87 %
03.10.2019 21:24 11,3 C 10,0 C 0,0 C 90 % 1016,8 hPa 0,0 l/m 0 min 0 min 0 W/m 0,0 km/h (0 Bft) 100,00 %
03.10.2019 21:26 11,3 C 10,0 C 0,0 C 90 % 1016,7 hPa 0,0 l/m 0 min 0 min 0 W/m 0,0 km/h (0 Bft) 97,87 %
03.10.2019 21:28 11,3 C 10,0 C 0,0 C 90 % 1016,7 hPa 0,0 l/m 0 min 0 min 0 W/m 0,0 km/h (0 Bft) 97,96 %
03.10.2019 21:30 11,3 C 10,0 C 0,0 C 90 % 1016,6 hPa 0,0 l/m 0 min 0 min 0 W/m 0,0 km/h (0 Bft) 97,87 %
03.10.2019 21:32 11,3 C 10,0 C 0,0 C 90 % 1016,6 hPa 0,0 l/m 0 min 0 min 0 W/m 0,0 km/h (0 Bft) 96,00 %
03.10.2019 21:34 11,2 C 10,0 C 0,0 C 90 % 1016,6 hPa 0,0 l/m 0 min 0 min 0 W/m 3,2 km/h (1 Bft) 97,14 %
03.10.2019 21:36 11,2 C 10,0 C 0,0 C 90 % 1016,5 hPa 0,0 l/m 0 min 0 min 0 W/m 0,0 km/h (0 Bft) 97,83 %
03.10.2019 21:38 11,2 C 10,0 C 0,0 C 91 % 1016,6 hPa 0,0 l/m 0 min 0 min 0 W/m 0,0 km/h (0 Bft) 97,87 %
03.10.2019 21:40 11,2 C 10,0 C 0,0 C 91 % 1016,5 hPa 0,0 l/m 0 min 0 min 0 W/m 3,2 km/h (1 Bft) 98,11 %
03.10.2019 21:42 11,2 C 10,0 C 0,0 C 91 % 1016,5 hPa 0,0 l/m 0 min 0 min 0 W/m 0,0 km/h (0 Bft) 97,87 %
03.10.2019 21:44 11,2 C 10,6 C 0,0 C 91 % 1016,5 hPa 0,0 l/m 0 min 0 min 0 W/m 0,0 km/h (0 Bft) 96,00 %
03.10.2019 21:46 11,2 C 10,6 C 0,0 C 91 % 1016,5 hPa 0,0 l/m 0 min 0 min 0 W/m 0,0 km/h (0 Bft) 97,96 %
03.10.2019 21:48 11,2 C 10,6 C 0,0 C 91 % 1016,5 hPa 0,0 l/m 0 min 0 min 0 W/m 0,0 km/h (0 Bft) 97,87 %
03.10.2019 21:50 11,2 C 10,6 C 0,0 C 91 % 1016,5 hPa 0,0 l/m 0 min 0 min 0 W/m 0,0 km/h (0 Bft) 97,14 %
03.10.2019 21:52 11,1 C 10,6 C 0,0 C 91 % 1016,4 hPa 0,0 l/m 0 min 0 min 0 W/m 3,2 km/h (1 Bft) 97,87 %
03.10.2019 21:54 11,1 C 10,6 C 0,0 C 91 % 1016,3 hPa 0,0 l/m 0 min 0 min 0 W/m 0,0 km/h (0 Bft) 97,87 %
03.10.2019 21:56 11,1 C 10,6 C 0,0 C 91 % 1016,3 hPa 0,0 l/m 0 min 0 min 0 W/m 3,2 km/h (1 Bft) 98,11 %
03.10.2019 21:58 11,1 C 10,6 C 0,0 C 91 % 1016,3 hPa 0,0 l/m 0 min 0 min 0 W/m 0,0 km/h (0 Bft) 97,87 %
03.10.2019 22:00 11,1 C 10,6 C 0,0 C 91 % 1016,3 hPa 0,0 l/m 0 min 0 min 0 W/m 0,0 km/h (0 Bft) 98,00 %
03.10.2019 22:02 11,1 C 10,6 C 0,0 C 91 % 1016,2 hPa 0,0 l/m 0 min 0 min 0 W/m 0,0 km/h (0 Bft) 95,65 %
03.10.2019 22:04 11,1 C 10,6 C 0,0 C 91 % 1016,3 hPa 0,0 l/m 0 min 0 min 0 W/m 0,0 km/h (0 Bft) 95,74 %
03.10.2019 22:06 11,1 C 10,6 C 0,0 C 91 % 1016,3 hPa 0,0 l/m 0 min 0 min 0 W/m 0,0 km/h (0 Bft) 93,62 %
03.10.2019 22:08 11,1 C 10,6 C 0,0 C 91 % 1016,3 hPa 0,0 l/m 0 min 0 min 0 W/m 0,0 km/h (0 Bft) 94,00 %
03.10.2019 22:10 11,1 C 10,6 C 0,0 C 91 % 1016,3 hPa 0,0 l/m 0 min 0 min 0 W/m 0,0 km/h (0 Bft) 93,48 %
03.10.2019 22:12 11,1 C 10,6 C 0,0 C 91 % 1016,2 hPa 0,0 l/m 0 min 0 min 0 W/m 0,0 km/h (0 Bft) 93,62 %
03.10.2019 22:14 11,1 C 10,6 C 0,0 C 91 % 1016,3 hPa 0,0 l/m 0 min 0 min 0 W/m 0,0 km/h (0 Bft) 95,74 %
03.10.2019 22:16 11,1 C 10,6 C 0,0 C 91 % 1016,3 hPa 0,0 l/m 0 min 0 min 0 W/m 0,0 km/h (0 Bft) 95,74 %
03.10.2019 22:18 11,1 C 10,6 C 0,0 C 91 % 1016,2 hPa 0,0 l/m 0 min 0 min 0 W/m 0,0 km/h (0 Bft) 95,74 %
03.10.2019 22:20 11,1 C 10,6 C 0,0 C 91 % 1016,2 hPa 0,0 l/m 0 min 0 min 0 W/m 0,0 km/h (0 Bft) 93,48 %
03.10.2019 22:22 11,1 C 10,6 C 0,0 C 91 % 1016,2 hPa 0,0 l/m 0 min 0 min 0 W/m 0,0 km/h (0 Bft) 95,74 %
03.10.2019 22:24 11,0 C 10,6 C 0,0 C 91 % 1016,2 hPa 0,0 l/m 0 min 0 min 0 W/m 0,0 km/h (0 Bft) 95,74 %
03.10.2019 22:26 11,1 C 10,6 C 0,0 C 91 % 1016,2 hPa 0,0 l/m 0 min 0 min 0 W/m 6,4 km/h (2 Bft) 95,74 %
03.10.2019 22:28 11,1 C 10,6 C 0,0 C 91 % 1016,2 hPa 0,0 l/m 0 min 0 min 0 W/m 3,2 km/h (1 Bft) 93,62 %
03.10.2019 22:30 11,1 C 10,6 C 0,0 C 91 % 1016,1 hPa 0,0 l/m 0 min 0 min 0 W/m 3,2 km/h (1 Bft) 95,74 %
03.10.2019 22:32 11,1 C 10,6 C 0,0 C 91 % 1016,1 hPa 0,0 l/m 0 min 0 min 0 W/m 6,4 km/h (2 Bft) 95,74 %
03.10.2019 22:34 11,1 C 10,6 C 0,0 C 91 % 1016,1 hPa 0,0 l/m 0 min 0 min 0 W/m 6,4 km/h (2 Bft) 95,65 %
03.10.2019 22:36 11,1 C 10,6 C 0,0 C 91 % 1015,9 hPa 0,0 l/m 0 min 0 min 0 W/m 6,4 km/h (2 Bft) 93,62 %
03.10.2019 22:38 11,1 C 10,6 C 0,0 C 91 % 1015,9 hPa 0,0 l/m 0 min 0 min 0 W/m 3,2 km/h (1 Bft) 93,62 %
03.10.2019 22:40 11,1 C 10,6 C 0,0 C 91 % 1015,9 hPa 0,0 l/m 0 min 0 min 0 W/m 6,4 km/h (2 Bft) 93,62 %
03.10.2019 22:42 11,1 C 10,6 C 0,0 C 91 % 1015,8 hPa 0,0 l/m 0 min 0 min 0 W/m 3,2 km/h (1 Bft) 93,62 %
03.10.2019 22:44 11,1 C 10,6 C 0,0 C 91 % 1015,8 hPa 0,0 l/m 0 min 0 min 0 W/m 3,2 km/h (1 Bft) 95,65 %
03.10.2019 22:46 11,1 C 10,6 C 0,0 C 91 % 1015,8 hPa 0,0 l/m 0 min 0 min 0 W/m 3,2 km/h (1 Bft) 95,74 %
03.10.2019 22:48 11,1 C 10,0 C 0,0 C 91 % 1015,8 hPa 0,0 l/m 0 min 0 min 0 W/m 3,2 km/h (1 Bft) 95,74 %
03.10.2019 22:50 11,1 C 10,0 C 0,0 C 91 % 1015,7 hPa 0,0 l/m 0 min 0 min 0 W/m 3,2 km/h (1 Bft) 95,74 %
03.10.2019 22:52 11,1 C 10,0 C 0,0 C 91 % 1015,7 hPa 0,0 l/m 0 min 0 min 0 W/m 3,2 km/h (1 Bft) 95,74 %
03.10.2019 22:54 11,1 C 10,0 C 0,0 C 91 % 1015,7 hPa 0,0 l/m 0 min 0 min 0 W/m 6,4 km/h (2 Bft) 97,87 %
03.10.2019 22:56 11,1 C 10,0 C 0,0 C 91 % 1015,7 hPa 0,0 l/m 0 min 0 min 0 W/m 6,4 km/h (2 Bft) 97,83 %
03.10.2019 22:58 11,1 C 10,0 C 0,0 C 91 % 1015,7 hPa 0,0 l/m 0 min 0 min 0 W/m 6,4 km/h (2 Bft) 95,74 %
03.10.2019 23:00 11,1 C 10,0 C 0,0 C 91 % 1015,7 hPa 0,0 l/m 0 min 0 min 0 W/m 6,4 km/h (2 Bft) 97,87 %
03.10.2019 23:02 11,1 C 10,0 C 0,0 C 91 % 1015,7 hPa 0,0 l/m 0 min 0 min 0 W/m 6,4 km/h (2 Bft) 100,00 %
03.10.2019 23:04 11,1 C 10,0 C 0,0 C 91 % 1015,7 hPa 0,0 l/m 0 min 0 min 0 W/m 3,2 km/h (1 Bft) 57,45 %
03.10.2019 23:06 11,1 C 10,0 C 0,0 C 91 % 1015,7 hPa 0,0 l/m 0 min 0 min 0 W/m 3,2 km/h (1 Bft) 100,00 %
03.10.2019 23:08 11,1 C 10,0 C 0,0 C 91 % 1015,7 hPa 0,0 l/m 0 min 0 min 0 W/m 6,4 km/h (2 Bft) 97,83 %
03.10.2019 23:10 11,1 C 10,0 C 0,0 C 91 % 1015,7 hPa 0,0 l/m 0 min 0 min 0 W/m 0,0 km/h (0 Bft) 97,87 %
03.10.2019 23:12 11,1 C 10,0 C 0,0 C 91 % 1015,6 hPa 0,0 l/m 0 min 0 min 0 W/m 0,0 km/h (0 Bft) 100,00 %
03.10.2019 23:14 11,1 C 10,0 C 0,0 C 91 % 1015,6 hPa 0,0 l/m 0 min 0 min 0 W/m 3,2 km/h (1 Bft) 100,00 %
03.10.2019 23:16 11,1 C 10,0 C 0,0 C 91 % 1015,7 hPa 0,0 l/m 0 min 0 min 0 W/m 6,4 km/h (2 Bft) 100,00 %
03.10.2019 23:18 11,1 C 10,0 C 0,0 C 91 % 1015,6 hPa 0,0 l/m 0 min 0 min 0 W/m 3,2 km/h (1 Bft) 97,87 %
03.10.2019 23:20 11,1 C 10,0 C 0,0 C 91 % 1015,7 hPa 0,0 l/m 0 min 0 min 0 W/m 6,4 km/h (2 Bft) 100,00 %
03.10.2019 23:22 11,1 C 10,0 C 0,0 C 91 % 1015,6 hPa 0,0 l/m 0 min 0 min 0 W/m 3,2 km/h (1 Bft) 100,00 %
03.10.2019 23:24 11,0 C 10,0 C 0,0 C 91 % 1015,5 hPa 0,0 l/m 0 min 0 min 0 W/m 3,2 km/h (1 Bft) 100,00 %
03.10.2019 23:26 11,0 C 10,0 C 0,0 C 91 % 1015,5 hPa 0,0 l/m 0 min 0 min 0 W/m 3,2 km/h (1 Bft) 100,00 %
03.10.2019 23:28 11,0 C 10,0 C 0,0 C 91 % 1015,4 hPa 0,0 l/m 0 min 0 min 0 W/m 6,4 km/h (2 Bft) 100,00 %
03.10.2019 23:30 11,0 C 10,0 C 0,0 C 91 % 1015,3 hPa 0,0 l/m 0 min 0 min 0 W/m 3,2 km/h (1 Bft) 97,87 %
03.10.2019 23:32 10,9 C 10,0 C 0,0 C 91 % 1015,3 hPa 0,0 l/m 0 min 0 min 0 W/m 6,4 km/h (2 Bft) 100,00 %
03.10.2019 23:34 10,9 C 9,4 C 0,0 C 91 % 1015,3 hPa 0,0 l/m 0 min 0 min 0 W/m 0,0 km/h (0 Bft) 100,00 %
03.10.2019 23:36 10,9 C 9,4 C 0,0 C 91 % 1015,2 hPa 0,0 l/m 0 min 0 min 0 W/m 0,0 km/h (0 Bft) 100,00 %
03.10.2019 23:38 10,9 C 9,4 C 0,0 C 91 % 1015,2 hPa 0,0 l/m 0 min 0 min 0 W/m 6,4 km/h (2 Bft) 100,00 %
03.10.2019 23:40 10,9 C 9,4 C 0,0 C 91 % 1015,1 hPa 0,0 l/m 0 min 0 min 0 W/m 3,2 km/h (1 Bft) 100,00 %
03.10.2019 23:42 10,9 C 9,4 C 0,0 C 91 % 1015,1 hPa 0,0 l/m 0 min 0 min 0 W/m 0,0 km/h (0 Bft) 100,00 %
03.10.2019 23:44 10,9 C 9,4 C 0,0 C 91 % 1015,1 hPa 0,0 l/m 0 min 0 min 0 W/m 6,4 km/h (2 Bft) 97,87 %
03.10.2019 23:46 10,8 C 9,4 C 0,0 C 91 % 1015,1 hPa 0,0 l/m 0 min 0 min 0 W/m 3,2 km/h (1 Bft) 100,00 %
03.10.2019 23:48 10,8 C 9,4 C 0,0 C 91 % 1015,1 hPa 0,0 l/m 0 min 0 min 0 W/m 3,2 km/h (1 Bft) 100,00 %
03.10.2019 23:50 10,8 C 9,4 C 0,0 C 91 % 1015,1 hPa 0,0 l/m 0 min 0 min 0 W/m 3,2 km/h (1 Bft) 97,87 %
03.10.2019 23:52 10,8 C 9,4 C 0,0 C 91 % 1015,1 hPa 0,0 l/m 0 min 0 min 0 W/m 6,4 km/h (2 Bft) 97,87 %
03.10.2019 23:54 10,8 C 9,4 C 0,0 C 91 % 1015,2 hPa 0,0 l/m 0 min 0 min 0 W/m 6,4 km/h (2 Bft) 100,00 %
03.10.2019 23:56 10,8 C 9,4 C 0,0 C 91 % 1015,0 hPa 0,0 l/m 0 min 0 min 0 W/m 3,2 km/h (1 Bft) 100,00 %
03.10.2019 23:58 10,8 C 9,4 C 0,0 C 91 % 1014,9 hPa 0,0 l/m 0 min 0 min 0 W/m 6,4 km/h (2 Bft) 97,83 %
_ Min-Zeit 05:36 04:58 14:30 16:06 23:58 - - - - 01:16 23:04
Minimum _ 7,6 C 6,7 C 0,0 C 78 % 1014,9 hPa - - - - 0,0 km/h (0 Bft) 57,45 %
_ Max-Zeit 16:06 14:50 15:06 06:36 09:22 13:20 14:46 13:26 14:56 10:00 00:36
Maximum _ 14,9 C 20,0 C 16,1 C 98 % 1019,0 hPa 0,2 l/m 5 min 4 min 697 W/m 22,5 km/h
O-SO (4 Bft)
100,00 %
Durchschnitt _ 10,7 C 10,5 C 6,1 C 92 % 1017,8 hPa #0,2 l/m #2:11 h #10 min. 159 W/m 6,9 km/h (2 Bft) 97,40 %
© 2019 W. Hausmann